<?xml version="1.0" encoding="UTF-8" standalone="no" ?>
<gpx xmlns="http://www.topografix.com/GPX/1/1" xmlns:xsi="http://www.w3.org/2001/XMLSchema-instance" xsi:schemaLocation="http://www.topografix.com/GPX/1/1 http://www.topografix.com/GPX/1/1/gpx.xsd" version="1.1" creator="VisuGPX - https://www.visugpx.com">
  <metadata>
    <name>Englefontaine 2014</name>
    <desc><![CDATA[Abandon au 14e km, probleme roue arriere]]></desc>
  </metadata>
  <trk>
    <name><![CDATA[2014-05-25 ENGLEFONTAINE]]></name>
    <desc><![CDATA[Probleme roue arriere, changée la veille, tous les rayons detendus apres 13.7 km
heureusement, pas loin de la maison, retour Landrecies...]]></desc>
    <trkseg>
      <trkpt lat="50.19089" lon="3.64227">
        <ele>220.76</ele>
        <time>2014-05-25T06:28:11Z</time>
      </trkpt>
      <trkpt lat="50.19089" lon="3.64227">
        <ele>220.76</ele>
        <time>2014-05-25T06:28:12Z</time>
      </trkpt>
      <trkpt lat="50.19089" lon="3.64228">
        <ele>146.74</ele>
        <time>2014-05-25T06:28:15Z</time>
      </trkpt>
      <trkpt lat="50.19089" lon="3.64228">
        <ele>146.74</ele>
        <time>2014-05-25T06:28:16Z</time>
      </trkpt>
      <trkpt lat="50.19088" lon="3.6423">
        <ele>146.74</ele>
        <time>2014-05-25T06:28:25Z</time>
      </trkpt>
      <trkpt lat="50.1908" lon="3.64259">
        <ele>146.74</ele>
        <time>2014-05-25T06:28:37Z</time>
      </trkpt>
      <trkpt lat="50.19054" lon="3.64307">
        <ele>147.22</ele>
        <time>2014-05-25T06:28:50Z</time>
      </trkpt>
      <trkpt lat="50.19023" lon="3.64372">
        <ele>147.22</ele>
        <time>2014-05-25T06:29:04Z</time>
      </trkpt>
      <trkpt lat="50.19004" lon="3.64414">
        <ele>146.26</ele>
        <time>2014-05-25T06:29:16Z</time>
      </trkpt>
      <trkpt lat="50.18958" lon="3.64391">
        <ele>143.37</ele>
        <time>2014-05-25T06:29:28Z</time>
      </trkpt>
      <trkpt lat="50.18937" lon="3.64378">
        <ele>142.41</ele>
        <time>2014-05-25T06:29:34Z</time>
      </trkpt>
      <trkpt lat="50.18934" lon="3.6438">
        <ele>142.41</ele>
        <time>2014-05-25T06:29:35Z</time>
      </trkpt>
      <trkpt lat="50.18931" lon="3.64384">
        <ele>142.41</ele>
        <time>2014-05-25T06:29:36Z</time>
      </trkpt>
      <trkpt lat="50.18929" lon="3.64389">
        <ele>141.93</ele>
        <time>2014-05-25T06:29:37Z</time>
      </trkpt>
      <trkpt lat="50.18927" lon="3.64395">
        <ele>141.93</ele>
        <time>2014-05-25T06:29:38Z</time>
      </trkpt>
      <trkpt lat="50.18898" lon="3.64477">
        <ele>141.93</ele>
        <time>2014-05-25T06:29:53Z</time>
      </trkpt>
      <trkpt lat="50.18892" lon="3.64487">
        <ele>141.93</ele>
        <time>2014-05-25T06:29:55Z</time>
      </trkpt>
      <trkpt lat="50.18885" lon="3.64495">
        <ele>141.93</ele>
        <time>2014-05-25T06:29:57Z</time>
      </trkpt>
      <trkpt lat="50.18872" lon="3.64512">
        <ele>142.89</ele>
        <time>2014-05-25T06:30:01Z</time>
      </trkpt>
      <trkpt lat="50.18869" lon="3.64516">
        <ele>142.89</ele>
        <time>2014-05-25T06:30:02Z</time>
      </trkpt>
      <trkpt lat="50.18828" lon="3.64549">
        <ele>143.85</ele>
        <time>2014-05-25T06:30:15Z</time>
      </trkpt>
      <trkpt lat="50.18775" lon="3.64594">
        <ele>144.34</ele>
        <time>2014-05-25T06:30:29Z</time>
      </trkpt>
      <trkpt lat="50.18753" lon="3.64611">
        <ele>144.34</ele>
        <time>2014-05-25T06:30:35Z</time>
      </trkpt>
      <trkpt lat="50.1871" lon="3.64656">
        <ele>144.34</ele>
        <time>2014-05-25T06:30:48Z</time>
      </trkpt>
      <trkpt lat="50.1865" lon="3.64699">
        <ele>143.37</ele>
        <time>2014-05-25T06:31:01Z</time>
      </trkpt>
      <trkpt lat="50.1863" lon="3.64711">
        <ele>143.37</ele>
        <time>2014-05-25T06:31:05Z</time>
      </trkpt>
      <trkpt lat="50.18625" lon="3.64712">
        <ele>143.37</ele>
        <time>2014-05-25T06:31:06Z</time>
      </trkpt>
      <trkpt lat="50.18604" lon="3.64716">
        <ele>143.37</ele>
        <time>2014-05-25T06:31:11Z</time>
      </trkpt>
      <trkpt lat="50.18601" lon="3.64719">
        <ele>143.37</ele>
        <time>2014-05-25T06:31:12Z</time>
      </trkpt>
      <trkpt lat="50.186" lon="3.64723">
        <ele>143.37</ele>
        <time>2014-05-25T06:31:13Z</time>
      </trkpt>
      <trkpt lat="50.186" lon="3.64726">
        <ele>144.34</ele>
        <time>2014-05-25T06:31:14Z</time>
      </trkpt>
      <trkpt lat="50.186" lon="3.64731">
        <ele>144.34</ele>
        <time>2014-05-25T06:31:15Z</time>
      </trkpt>
      <trkpt lat="50.18601" lon="3.64737">
        <ele>144.82</ele>
        <time>2014-05-25T06:31:16Z</time>
      </trkpt>
      <trkpt lat="50.18602" lon="3.64743">
        <ele>145.3</ele>
        <time>2014-05-25T06:31:17Z</time>
      </trkpt>
      <trkpt lat="50.18612" lon="3.6482">
        <ele>147.22</ele>
        <time>2014-05-25T06:31:30Z</time>
      </trkpt>
      <trkpt lat="50.18621" lon="3.64896">
        <ele>149.62</ele>
        <time>2014-05-25T06:31:45Z</time>
      </trkpt>
      <trkpt lat="50.18619" lon="3.64899">
        <ele>149.62</ele>
        <time>2014-05-25T06:31:46Z</time>
      </trkpt>
      <trkpt lat="50.18617" lon="3.649">
        <ele>149.62</ele>
        <time>2014-05-25T06:31:47Z</time>
      </trkpt>
      <trkpt lat="50.18615" lon="3.64901">
        <ele>149.62</ele>
        <time>2014-05-25T06:31:48Z</time>
      </trkpt>
      <trkpt lat="50.18612" lon="3.64902">
        <ele>149.62</ele>
        <time>2014-05-25T06:31:49Z</time>
      </trkpt>
      <trkpt lat="50.18584" lon="3.64912">
        <ele>149.62</ele>
        <time>2014-05-25T06:32:00Z</time>
      </trkpt>
      <trkpt lat="50.18584" lon="3.64915">
        <ele>149.62</ele>
        <time>2014-05-25T06:32:01Z</time>
      </trkpt>
      <trkpt lat="50.18585" lon="3.64918">
        <ele>149.62</ele>
        <time>2014-05-25T06:32:02Z</time>
      </trkpt>
      <trkpt lat="50.18585" lon="3.64921">
        <ele>149.62</ele>
        <time>2014-05-25T06:32:03Z</time>
      </trkpt>
      <trkpt lat="50.18587" lon="3.64924">
        <ele>149.62</ele>
        <time>2014-05-25T06:32:04Z</time>
      </trkpt>
      <trkpt lat="50.18588" lon="3.64927">
        <ele>149.62</ele>
        <time>2014-05-25T06:32:05Z</time>
      </trkpt>
      <trkpt lat="50.18613" lon="3.64986">
        <ele>150.1</ele>
        <time>2014-05-25T06:32:19Z</time>
      </trkpt>
      <trkpt lat="50.18637" lon="3.65052">
        <ele>152.03</ele>
        <time>2014-05-25T06:32:35Z</time>
      </trkpt>
      <trkpt lat="50.18657" lon="3.65107">
        <ele>153.47</ele>
        <time>2014-05-25T06:32:49Z</time>
      </trkpt>
      <trkpt lat="50.18688" lon="3.65181">
        <ele>154.91</ele>
        <time>2014-05-25T06:33:04Z</time>
      </trkpt>
      <trkpt lat="50.1869" lon="3.65192">
        <ele>154.91</ele>
        <time>2014-05-25T06:33:07Z</time>
      </trkpt>
      <trkpt lat="50.18689" lon="3.65195">
        <ele>154.91</ele>
        <time>2014-05-25T06:33:08Z</time>
      </trkpt>
      <trkpt lat="50.18687" lon="3.65198">
        <ele>154.91</ele>
        <time>2014-05-25T06:33:09Z</time>
      </trkpt>
      <trkpt lat="50.18643" lon="3.65264">
        <ele>152.03</ele>
        <time>2014-05-25T06:33:23Z</time>
      </trkpt>
      <trkpt lat="50.18642" lon="3.65271">
        <ele>152.03</ele>
        <time>2014-05-25T06:33:24Z</time>
      </trkpt>
      <trkpt lat="50.18641" lon="3.65276">
        <ele>151.54</ele>
        <time>2014-05-25T06:33:25Z</time>
      </trkpt>
      <trkpt lat="50.18641" lon="3.65283">
        <ele>151.54</ele>
        <time>2014-05-25T06:33:26Z</time>
      </trkpt>
      <trkpt lat="50.18642" lon="3.6529">
        <ele>151.54</ele>
        <time>2014-05-25T06:33:27Z</time>
      </trkpt>
      <trkpt lat="50.18644" lon="3.65297">
        <ele>151.54</ele>
        <time>2014-05-25T06:33:28Z</time>
      </trkpt>
      <trkpt lat="50.18646" lon="3.65305">
        <ele>151.54</ele>
        <time>2014-05-25T06:33:29Z</time>
      </trkpt>
      <trkpt lat="50.1867" lon="3.65389">
        <ele>151.54</ele>
        <time>2014-05-25T06:33:43Z</time>
      </trkpt>
      <trkpt lat="50.1868" lon="3.65423">
        <ele>152.99</ele>
        <time>2014-05-25T06:33:49Z</time>
      </trkpt>
      <trkpt lat="50.18705" lon="3.6551">
        <ele>153.47</ele>
        <time>2014-05-25T06:34:03Z</time>
      </trkpt>
      <trkpt lat="50.18731" lon="3.65612">
        <ele>154.43</ele>
        <time>2014-05-25T06:34:19Z</time>
      </trkpt>
      <trkpt lat="50.18747" lon="3.65674">
        <ele>154.43</ele>
        <time>2014-05-25T06:34:28Z</time>
      </trkpt>
      <trkpt lat="50.18775" lon="3.65786">
        <ele>154.43</ele>
        <time>2014-05-25T06:34:44Z</time>
      </trkpt>
      <trkpt lat="50.18791" lon="3.65849">
        <ele>154.91</ele>
        <time>2014-05-25T06:34:54Z</time>
      </trkpt>
      <trkpt lat="50.18792" lon="3.65856">
        <ele>154.91</ele>
        <time>2014-05-25T06:34:55Z</time>
      </trkpt>
      <trkpt lat="50.18792" lon="3.65861">
        <ele>154.91</ele>
        <time>2014-05-25T06:34:56Z</time>
      </trkpt>
      <trkpt lat="50.18791" lon="3.65866">
        <ele>155.39</ele>
        <time>2014-05-25T06:34:57Z</time>
      </trkpt>
      <trkpt lat="50.18791" lon="3.65869">
        <ele>155.39</ele>
        <time>2014-05-25T06:34:58Z</time>
      </trkpt>
      <trkpt lat="50.1879" lon="3.65872">
        <ele>155.39</ele>
        <time>2014-05-25T06:34:59Z</time>
      </trkpt>
      <trkpt lat="50.1879" lon="3.65874">
        <ele>155.39</ele>
        <time>2014-05-25T06:35:00Z</time>
      </trkpt>
      <trkpt lat="50.1879" lon="3.65882">
        <ele>155.87</ele>
        <time>2014-05-25T06:35:05Z</time>
      </trkpt>
      <trkpt lat="50.1879" lon="3.65884">
        <ele>155.87</ele>
        <time>2014-05-25T06:35:06Z</time>
      </trkpt>
      <trkpt lat="50.18788" lon="3.65885">
        <ele>155.87</ele>
        <time>2014-05-25T06:35:07Z</time>
      </trkpt>
      <trkpt lat="50.18787" lon="3.65887">
        <ele>155.87</ele>
        <time>2014-05-25T06:35:08Z</time>
      </trkpt>
      <trkpt lat="50.18785" lon="3.65888">
        <ele>155.87</ele>
        <time>2014-05-25T06:35:09Z</time>
      </trkpt>
      <trkpt lat="50.18751" lon="3.65915">
        <ele>155.87</ele>
        <time>2014-05-25T06:35:22Z</time>
      </trkpt>
      <trkpt lat="50.18745" lon="3.65919">
        <ele>154.43</ele>
        <time>2014-05-25T06:35:24Z</time>
      </trkpt>
      <trkpt lat="50.18728" lon="3.65926">
        <ele>153.95</ele>
        <time>2014-05-25T06:35:28Z</time>
      </trkpt>
      <trkpt lat="50.18693" lon="3.65941">
        <ele>151.06</ele>
        <time>2014-05-25T06:35:38Z</time>
      </trkpt>
      <trkpt lat="50.1868" lon="3.65972">
        <ele>150.1</ele>
        <time>2014-05-25T06:35:48Z</time>
      </trkpt>
      <trkpt lat="50.18666" lon="3.66025">
        <ele>148.66</ele>
        <time>2014-05-25T06:35:57Z</time>
      </trkpt>
      <trkpt lat="50.18659" lon="3.66061">
        <ele>148.66</ele>
        <time>2014-05-25T06:36:06Z</time>
      </trkpt>
      <trkpt lat="50.18656" lon="3.66071">
        <ele>148.66</ele>
        <time>2014-05-25T06:36:08Z</time>
      </trkpt>
      <trkpt lat="50.18656" lon="3.66076">
        <ele>148.66</ele>
        <time>2014-05-25T06:36:09Z</time>
      </trkpt>
      <trkpt lat="50.18655" lon="3.66081">
        <ele>148.66</ele>
        <time>2014-05-25T06:36:10Z</time>
      </trkpt>
      <trkpt lat="50.18655" lon="3.66085">
        <ele>148.66</ele>
        <time>2014-05-25T06:36:11Z</time>
      </trkpt>
      <trkpt lat="50.18655" lon="3.6609">
        <ele>148.66</ele>
        <time>2014-05-25T06:36:12Z</time>
      </trkpt>
      <trkpt lat="50.18655" lon="3.66094">
        <ele>148.66</ele>
        <time>2014-05-25T06:36:13Z</time>
      </trkpt>
      <trkpt lat="50.18655" lon="3.66099">
        <ele>148.66</ele>
        <time>2014-05-25T06:36:14Z</time>
      </trkpt>
      <trkpt lat="50.18656" lon="3.66104">
        <ele>148.66</ele>
        <time>2014-05-25T06:36:15Z</time>
      </trkpt>
      <trkpt lat="50.18655" lon="3.66108">
        <ele>148.66</ele>
        <time>2014-05-25T06:36:16Z</time>
      </trkpt>
      <trkpt lat="50.18654" lon="3.66112">
        <ele>148.66</ele>
        <time>2014-05-25T06:36:17Z</time>
      </trkpt>
      <trkpt lat="50.18654" lon="3.66115">
        <ele>148.66</ele>
        <time>2014-05-25T06:36:18Z</time>
      </trkpt>
      <trkpt lat="50.18653" lon="3.6612">
        <ele>148.66</ele>
        <time>2014-05-25T06:36:19Z</time>
      </trkpt>
      <trkpt lat="50.18642" lon="3.66169">
        <ele>148.66</ele>
        <time>2014-05-25T06:36:31Z</time>
      </trkpt>
      <trkpt lat="50.18635" lon="3.66218">
        <ele>148.66</ele>
        <time>2014-05-25T06:36:42Z</time>
      </trkpt>
      <trkpt lat="50.18636" lon="3.66239">
        <ele>149.14</ele>
        <time>2014-05-25T06:36:47Z</time>
      </trkpt>
      <trkpt lat="50.18635" lon="3.66244">
        <ele>149.14</ele>
        <time>2014-05-25T06:36:48Z</time>
      </trkpt>
      <trkpt lat="50.18635" lon="3.66248">
        <ele>149.14</ele>
        <time>2014-05-25T06:36:49Z</time>
      </trkpt>
      <trkpt lat="50.18637" lon="3.66282">
        <ele>149.14</ele>
        <time>2014-05-25T06:36:58Z</time>
      </trkpt>
      <trkpt lat="50.18638" lon="3.66284">
        <ele>149.14</ele>
        <time>2014-05-25T06:36:59Z</time>
      </trkpt>
      <trkpt lat="50.18645" lon="3.66309">
        <ele>149.14</ele>
        <time>2014-05-25T06:37:10Z</time>
      </trkpt>
      <trkpt lat="50.18646" lon="3.66312">
        <ele>149.14</ele>
        <time>2014-05-25T06:37:11Z</time>
      </trkpt>
      <trkpt lat="50.18646" lon="3.66315">
        <ele>149.14</ele>
        <time>2014-05-25T06:37:12Z</time>
      </trkpt>
      <trkpt lat="50.18647" lon="3.66319">
        <ele>149.14</ele>
        <time>2014-05-25T06:37:13Z</time>
      </trkpt>
      <trkpt lat="50.18648" lon="3.66322">
        <ele>149.14</ele>
        <time>2014-05-25T06:37:14Z</time>
      </trkpt>
      <trkpt lat="50.1865" lon="3.66326">
        <ele>149.14</ele>
        <time>2014-05-25T06:37:15Z</time>
      </trkpt>
      <trkpt lat="50.18652" lon="3.6633">
        <ele>149.14</ele>
        <time>2014-05-25T06:37:16Z</time>
      </trkpt>
      <trkpt lat="50.18654" lon="3.66334">
        <ele>149.14</ele>
        <time>2014-05-25T06:37:17Z</time>
      </trkpt>
      <trkpt lat="50.18656" lon="3.66338">
        <ele>149.14</ele>
        <time>2014-05-25T06:37:18Z</time>
      </trkpt>
      <trkpt lat="50.18658" lon="3.66342">
        <ele>149.14</ele>
        <time>2014-05-25T06:37:19Z</time>
      </trkpt>
      <trkpt lat="50.18661" lon="3.66345">
        <ele>149.14</ele>
        <time>2014-05-25T06:37:20Z</time>
      </trkpt>
      <trkpt lat="50.18663" lon="3.66348">
        <ele>149.14</ele>
        <time>2014-05-25T06:37:21Z</time>
      </trkpt>
      <trkpt lat="50.18666" lon="3.66352">
        <ele>149.14</ele>
        <time>2014-05-25T06:37:22Z</time>
      </trkpt>
      <trkpt lat="50.18682" lon="3.66397">
        <ele>149.62</ele>
        <time>2014-05-25T06:37:32Z</time>
      </trkpt>
      <trkpt lat="50.18689" lon="3.66417">
        <ele>150.58</ele>
        <time>2014-05-25T06:37:37Z</time>
      </trkpt>
      <trkpt lat="50.18704" lon="3.66461">
        <ele>150.58</ele>
        <time>2014-05-25T06:37:48Z</time>
      </trkpt>
      <trkpt lat="50.18706" lon="3.66466">
        <ele>151.06</ele>
        <time>2014-05-25T06:37:49Z</time>
      </trkpt>
      <trkpt lat="50.18708" lon="3.66471">
        <ele>151.06</ele>
        <time>2014-05-25T06:37:50Z</time>
      </trkpt>
      <trkpt lat="50.1871" lon="3.66476">
        <ele>151.06</ele>
        <time>2014-05-25T06:37:51Z</time>
      </trkpt>
      <trkpt lat="50.18712" lon="3.6648">
        <ele>151.06</ele>
        <time>2014-05-25T06:37:52Z</time>
      </trkpt>
      <trkpt lat="50.18713" lon="3.66485">
        <ele>151.06</ele>
        <time>2014-05-25T06:37:53Z</time>
      </trkpt>
      <trkpt lat="50.18715" lon="3.66489">
        <ele>151.06</ele>
        <time>2014-05-25T06:37:54Z</time>
      </trkpt>
      <trkpt lat="50.18732" lon="3.6654">
        <ele>151.54</ele>
        <time>2014-05-25T06:38:06Z</time>
      </trkpt>
      <trkpt lat="50.18733" lon="3.66544">
        <ele>151.54</ele>
        <time>2014-05-25T06:38:07Z</time>
      </trkpt>
      <trkpt lat="50.18733" lon="3.66547">
        <ele>151.54</ele>
        <time>2014-05-25T06:38:08Z</time>
      </trkpt>
      <trkpt lat="50.18735" lon="3.66551">
        <ele>151.54</ele>
        <time>2014-05-25T06:38:09Z</time>
      </trkpt>
      <trkpt lat="50.18736" lon="3.66554">
        <ele>151.54</ele>
        <time>2014-05-25T06:38:10Z</time>
      </trkpt>
      <trkpt lat="50.18742" lon="3.66574">
        <ele>152.03</ele>
        <time>2014-05-25T06:38:21Z</time>
      </trkpt>
      <trkpt lat="50.18749" lon="3.66607">
        <ele>152.03</ele>
        <time>2014-05-25T06:38:30Z</time>
      </trkpt>
      <trkpt lat="50.18771" lon="3.66683">
        <ele>152.99</ele>
        <time>2014-05-25T06:38:40Z</time>
      </trkpt>
      <trkpt lat="50.18784" lon="3.66726">
        <ele>152.99</ele>
        <time>2014-05-25T06:38:48Z</time>
      </trkpt>
      <trkpt lat="50.18784" lon="3.6673">
        <ele>152.99</ele>
        <time>2014-05-25T06:38:49Z</time>
      </trkpt>
      <trkpt lat="50.18784" lon="3.66732">
        <ele>152.99</ele>
        <time>2014-05-25T06:38:50Z</time>
      </trkpt>
      <trkpt lat="50.18782" lon="3.66735">
        <ele>152.99</ele>
        <time>2014-05-25T06:38:51Z</time>
      </trkpt>
      <trkpt lat="50.1878" lon="3.66737">
        <ele>151.54</ele>
        <time>2014-05-25T06:38:52Z</time>
      </trkpt>
      <trkpt lat="50.18776" lon="3.6674">
        <ele>151.54</ele>
        <time>2014-05-25T06:38:53Z</time>
      </trkpt>
      <trkpt lat="50.18772" lon="3.66742">
        <ele>151.06</ele>
        <time>2014-05-25T06:38:54Z</time>
      </trkpt>
      <trkpt lat="50.18766" lon="3.66744">
        <ele>150.58</ele>
        <time>2014-05-25T06:38:55Z</time>
      </trkpt>
      <trkpt lat="50.18752" lon="3.66751">
        <ele>150.1</ele>
        <time>2014-05-25T06:38:58Z</time>
      </trkpt>
      <trkpt lat="50.18735" lon="3.66756">
        <ele>149.62</ele>
        <time>2014-05-25T06:39:01Z</time>
      </trkpt>
      <trkpt lat="50.1873" lon="3.66757">
        <ele>149.62</ele>
        <time>2014-05-25T06:39:02Z</time>
      </trkpt>
      <trkpt lat="50.18726" lon="3.66759">
        <ele>151.06</ele>
        <time>2014-05-25T06:39:03Z</time>
      </trkpt>
      <trkpt lat="50.18722" lon="3.66762">
        <ele>151.06</ele>
        <time>2014-05-25T06:39:04Z</time>
      </trkpt>
      <trkpt lat="50.18717" lon="3.66763">
        <ele>152.03</ele>
        <time>2014-05-25T06:39:05Z</time>
      </trkpt>
      <trkpt lat="50.18713" lon="3.66766">
        <ele>152.03</ele>
        <time>2014-05-25T06:39:06Z</time>
      </trkpt>
      <trkpt lat="50.18709" lon="3.66769">
        <ele>152.03</ele>
        <time>2014-05-25T06:39:07Z</time>
      </trkpt>
      <trkpt lat="50.18705" lon="3.66771">
        <ele>152.51</ele>
        <time>2014-05-25T06:39:08Z</time>
      </trkpt>
      <trkpt lat="50.18689" lon="3.66776">
        <ele>153.95</ele>
        <time>2014-05-25T06:39:12Z</time>
      </trkpt>
      <trkpt lat="50.1865" lon="3.66791">
        <ele>156.35</ele>
        <time>2014-05-25T06:39:25Z</time>
      </trkpt>
      <trkpt lat="50.18583" lon="3.66809">
        <ele>157.31</ele>
        <time>2014-05-25T06:39:43Z</time>
      </trkpt>
      <trkpt lat="50.1855" lon="3.66818">
        <ele>157.31</ele>
        <time>2014-05-25T06:39:51Z</time>
      </trkpt>
      <trkpt lat="50.18546" lon="3.6682">
        <ele>157.31</ele>
        <time>2014-05-25T06:39:52Z</time>
      </trkpt>
      <trkpt lat="50.18488" lon="3.66837">
        <ele>158.27</ele>
        <time>2014-05-25T06:40:06Z</time>
      </trkpt>
      <trkpt lat="50.18484" lon="3.66838">
        <ele>158.27</ele>
        <time>2014-05-25T06:40:07Z</time>
      </trkpt>
      <trkpt lat="50.1847" lon="3.66842">
        <ele>158.27</ele>
        <time>2014-05-25T06:40:10Z</time>
      </trkpt>
      <trkpt lat="50.18434" lon="3.66855">
        <ele>158.27</ele>
        <time>2014-05-25T06:40:21Z</time>
      </trkpt>
      <trkpt lat="50.18365" lon="3.66876">
        <ele>156.83</ele>
        <time>2014-05-25T06:40:38Z</time>
      </trkpt>
      <trkpt lat="50.18361" lon="3.66877">
        <ele>156.83</ele>
        <time>2014-05-25T06:40:39Z</time>
      </trkpt>
      <trkpt lat="50.18347" lon="3.66879">
        <ele>156.83</ele>
        <time>2014-05-25T06:40:42Z</time>
      </trkpt>
      <trkpt lat="50.18342" lon="3.66881">
        <ele>155.87</ele>
        <time>2014-05-25T06:40:43Z</time>
      </trkpt>
      <trkpt lat="50.18337" lon="3.66883">
        <ele>155.87</ele>
        <time>2014-05-25T06:40:44Z</time>
      </trkpt>
      <trkpt lat="50.18308" lon="3.66887">
        <ele>154.91</ele>
        <time>2014-05-25T06:40:50Z</time>
      </trkpt>
      <trkpt lat="50.1827" lon="3.66899">
        <ele>153.47</ele>
        <time>2014-05-25T06:41:01Z</time>
      </trkpt>
      <trkpt lat="50.18221" lon="3.66917">
        <ele>152.51</ele>
        <time>2014-05-25T06:41:14Z</time>
      </trkpt>
      <trkpt lat="50.18174" lon="3.66928">
        <ele>152.51</ele>
        <time>2014-05-25T06:41:26Z</time>
      </trkpt>
      <trkpt lat="50.18109" lon="3.66945">
        <ele>151.54</ele>
        <time>2014-05-25T06:41:37Z</time>
      </trkpt>
      <trkpt lat="50.18033" lon="3.66969">
        <ele>151.06</ele>
        <time>2014-05-25T06:41:50Z</time>
      </trkpt>
      <trkpt lat="50.17996" lon="3.66979">
        <ele>151.06</ele>
        <time>2014-05-25T06:41:57Z</time>
      </trkpt>
      <trkpt lat="50.17986" lon="3.66983">
        <ele>151.06</ele>
        <time>2014-05-25T06:41:59Z</time>
      </trkpt>
      <trkpt lat="50.17979" lon="3.66988">
        <ele>151.06</ele>
        <time>2014-05-25T06:42:02Z</time>
      </trkpt>
      <trkpt lat="50.17977" lon="3.66988">
        <ele>151.06</ele>
        <time>2014-05-25T06:42:03Z</time>
      </trkpt>
      <trkpt lat="50.17975" lon="3.66988">
        <ele>151.06</ele>
        <time>2014-05-25T06:42:04Z</time>
      </trkpt>
      <trkpt lat="50.17973" lon="3.66988">
        <ele>151.06</ele>
        <time>2014-05-25T06:42:05Z</time>
      </trkpt>
      <trkpt lat="50.17971" lon="3.66989">
        <ele>151.06</ele>
        <time>2014-05-25T06:42:06Z</time>
      </trkpt>
      <trkpt lat="50.17968" lon="3.66989">
        <ele>151.06</ele>
        <time>2014-05-25T06:42:07Z</time>
      </trkpt>
      <trkpt lat="50.17956" lon="3.66994">
        <ele>152.51</ele>
        <time>2014-05-25T06:42:10Z</time>
      </trkpt>
      <trkpt lat="50.17944" lon="3.66996">
        <ele>153.47</ele>
        <time>2014-05-25T06:42:13Z</time>
      </trkpt>
      <trkpt lat="50.1794" lon="3.66995">
        <ele>153.47</ele>
        <time>2014-05-25T06:42:14Z</time>
      </trkpt>
      <trkpt lat="50.17937" lon="3.66991">
        <ele>153.47</ele>
        <time>2014-05-25T06:42:15Z</time>
      </trkpt>
      <trkpt lat="50.17934" lon="3.66986">
        <ele>153.95</ele>
        <time>2014-05-25T06:42:16Z</time>
      </trkpt>
      <trkpt lat="50.17933" lon="3.66981">
        <ele>153.95</ele>
        <time>2014-05-25T06:42:17Z</time>
      </trkpt>
      <trkpt lat="50.17932" lon="3.66976">
        <ele>154.43</ele>
        <time>2014-05-25T06:42:18Z</time>
      </trkpt>
      <trkpt lat="50.17916" lon="3.669">
        <ele>155.39</ele>
        <time>2014-05-25T06:42:32Z</time>
      </trkpt>
      <trkpt lat="50.17902" lon="3.66827">
        <ele>156.35</ele>
        <time>2014-05-25T06:42:45Z</time>
      </trkpt>
      <trkpt lat="50.17888" lon="3.66757">
        <ele>156.83</ele>
        <time>2014-05-25T06:42:56Z</time>
      </trkpt>
      <trkpt lat="50.17886" lon="3.6675">
        <ele>156.83</ele>
        <time>2014-05-25T06:42:57Z</time>
      </trkpt>
      <trkpt lat="50.17885" lon="3.66743">
        <ele>156.83</ele>
        <time>2014-05-25T06:42:58Z</time>
      </trkpt>
      <trkpt lat="50.17872" lon="3.66683">
        <ele>156.83</ele>
        <time>2014-05-25T06:43:06Z</time>
      </trkpt>
      <trkpt lat="50.17871" lon="3.66675">
        <ele>156.83</ele>
        <time>2014-05-25T06:43:07Z</time>
      </trkpt>
      <trkpt lat="50.17863" lon="3.66635">
        <ele>155.39</ele>
        <time>2014-05-25T06:43:12Z</time>
      </trkpt>
      <trkpt lat="50.17861" lon="3.66627">
        <ele>155.39</ele>
        <time>2014-05-25T06:43:13Z</time>
      </trkpt>
      <trkpt lat="50.17841" lon="3.66528">
        <ele>155.39</ele>
        <time>2014-05-25T06:43:25Z</time>
      </trkpt>
      <trkpt lat="50.17838" lon="3.66512">
        <ele>155.39</ele>
        <time>2014-05-25T06:43:27Z</time>
      </trkpt>
      <trkpt lat="50.17836" lon="3.66496">
        <ele>156.83</ele>
        <time>2014-05-25T06:43:29Z</time>
      </trkpt>
      <trkpt lat="50.17834" lon="3.66487">
        <ele>156.83</ele>
        <time>2014-05-25T06:43:30Z</time>
      </trkpt>
      <trkpt lat="50.17808" lon="3.6636">
        <ele>159.24</ele>
        <time>2014-05-25T06:43:46Z</time>
      </trkpt>
      <trkpt lat="50.17785" lon="3.6625">
        <ele>157.79</ele>
        <time>2014-05-25T06:44:00Z</time>
      </trkpt>
      <trkpt lat="50.17783" lon="3.66242">
        <ele>162.6</ele>
        <time>2014-05-25T06:44:01Z</time>
      </trkpt>
      <trkpt lat="50.17762" lon="3.66157">
        <ele>162.6</ele>
        <time>2014-05-25T06:44:14Z</time>
      </trkpt>
      <trkpt lat="50.17759" lon="3.66155">
        <ele>162.6</ele>
        <time>2014-05-25T06:44:15Z</time>
      </trkpt>
      <trkpt lat="50.17755" lon="3.66156">
        <ele>162.6</ele>
        <time>2014-05-25T06:44:16Z</time>
      </trkpt>
      <trkpt lat="50.17753" lon="3.66158">
        <ele>162.6</ele>
        <time>2014-05-25T06:44:17Z</time>
      </trkpt>
      <trkpt lat="50.17751" lon="3.66161">
        <ele>162.6</ele>
        <time>2014-05-25T06:44:18Z</time>
      </trkpt>
      <trkpt lat="50.17748" lon="3.66162">
        <ele>162.6</ele>
        <time>2014-05-25T06:44:19Z</time>
      </trkpt>
      <trkpt lat="50.17744" lon="3.66164">
        <ele>162.6</ele>
        <time>2014-05-25T06:44:20Z</time>
      </trkpt>
      <trkpt lat="50.17737" lon="3.66168">
        <ele>162.6</ele>
        <time>2014-05-25T06:44:22Z</time>
      </trkpt>
      <trkpt lat="50.17734" lon="3.66172">
        <ele>162.12</ele>
        <time>2014-05-25T06:44:23Z</time>
      </trkpt>
      <trkpt lat="50.17731" lon="3.66176">
        <ele>162.12</ele>
        <time>2014-05-25T06:44:24Z</time>
      </trkpt>
      <trkpt lat="50.17724" lon="3.66184">
        <ele>161.16</ele>
        <time>2014-05-25T06:44:26Z</time>
      </trkpt>
      <trkpt lat="50.17699" lon="3.66209">
        <ele>160.2</ele>
        <time>2014-05-25T06:44:33Z</time>
      </trkpt>
      <trkpt lat="50.17671" lon="3.66241">
        <ele>158.27</ele>
        <time>2014-05-25T06:44:42Z</time>
      </trkpt>
      <trkpt lat="50.1766" lon="3.66251">
        <ele>158.27</ele>
        <time>2014-05-25T06:44:46Z</time>
      </trkpt>
      <trkpt lat="50.17644" lon="3.66262">
        <ele>157.79</ele>
        <time>2014-05-25T06:44:53Z</time>
      </trkpt>
      <trkpt lat="50.17643" lon="3.66265">
        <ele>157.79</ele>
        <time>2014-05-25T06:44:54Z</time>
      </trkpt>
      <trkpt lat="50.17641" lon="3.66268">
        <ele>157.79</ele>
        <time>2014-05-25T06:44:55Z</time>
      </trkpt>
      <trkpt lat="50.1763" lon="3.66285">
        <ele>159.24</ele>
        <time>2014-05-25T06:45:01Z</time>
      </trkpt>
      <trkpt lat="50.17607" lon="3.66313">
        <ele>160.68</ele>
        <time>2014-05-25T06:45:12Z</time>
      </trkpt>
      <trkpt lat="50.17582" lon="3.66344">
        <ele>161.64</ele>
        <time>2014-05-25T06:45:23Z</time>
      </trkpt>
      <trkpt lat="50.17561" lon="3.66368">
        <ele>161.64</ele>
        <time>2014-05-25T06:45:33Z</time>
      </trkpt>
      <trkpt lat="50.17535" lon="3.66394">
        <ele>161.64</ele>
        <time>2014-05-25T06:45:44Z</time>
      </trkpt>
      <trkpt lat="50.17531" lon="3.66398">
        <ele>161.64</ele>
        <time>2014-05-25T06:45:50Z</time>
      </trkpt>
      <trkpt lat="50.17518" lon="3.66412">
        <ele>162.12</ele>
        <time>2014-05-25T06:45:58Z</time>
      </trkpt>
      <trkpt lat="50.17516" lon="3.66413">
        <ele>162.12</ele>
        <time>2014-05-25T06:45:59Z</time>
      </trkpt>
      <trkpt lat="50.17515" lon="3.66415">
        <ele>162.12</ele>
        <time>2014-05-25T06:46:00Z</time>
      </trkpt>
      <trkpt lat="50.17513" lon="3.66417">
        <ele>162.12</ele>
        <time>2014-05-25T06:46:01Z</time>
      </trkpt>
      <trkpt lat="50.17511" lon="3.66419">
        <ele>162.12</ele>
        <time>2014-05-25T06:46:02Z</time>
      </trkpt>
      <trkpt lat="50.17509" lon="3.6642">
        <ele>162.12</ele>
        <time>2014-05-25T06:46:03Z</time>
      </trkpt>
      <trkpt lat="50.17507" lon="3.66422">
        <ele>162.12</ele>
        <time>2014-05-25T06:46:04Z</time>
      </trkpt>
      <trkpt lat="50.17506" lon="3.66424">
        <ele>162.12</ele>
        <time>2014-05-25T06:46:05Z</time>
      </trkpt>
      <trkpt lat="50.17504" lon="3.66425">
        <ele>162.12</ele>
        <time>2014-05-25T06:46:06Z</time>
      </trkpt>
      <trkpt lat="50.17499" lon="3.66429">
        <ele>160.68</ele>
        <time>2014-05-25T06:46:08Z</time>
      </trkpt>
      <trkpt lat="50.17496" lon="3.66433">
        <ele>160.68</ele>
        <time>2014-05-25T06:46:10Z</time>
      </trkpt>
      <trkpt lat="50.17495" lon="3.66435">
        <ele>160.68</ele>
        <time>2014-05-25T06:46:11Z</time>
      </trkpt>
      <trkpt lat="50.17483" lon="3.6645">
        <ele>161.16</ele>
        <time>2014-05-25T06:46:21Z</time>
      </trkpt>
      <trkpt lat="50.17462" lon="3.66474">
        <ele>160.68</ele>
        <time>2014-05-25T06:46:33Z</time>
      </trkpt>
      <trkpt lat="50.17438" lon="3.665">
        <ele>161.16</ele>
        <time>2014-05-25T06:46:47Z</time>
      </trkpt>
      <trkpt lat="50.17433" lon="3.66506">
        <ele>161.16</ele>
        <time>2014-05-25T06:46:51Z</time>
      </trkpt>
      <trkpt lat="50.17431" lon="3.6651">
        <ele>162.12</ele>
        <time>2014-05-25T06:46:53Z</time>
      </trkpt>
      <trkpt lat="50.17424" lon="3.66518">
        <ele>162.6</ele>
        <time>2014-05-25T06:47:07Z</time>
      </trkpt>
      <trkpt lat="50.17421" lon="3.66522">
        <ele>162.6</ele>
        <time>2014-05-25T06:47:16Z</time>
      </trkpt>
      <trkpt lat="50.1742" lon="3.66523">
        <ele>162.6</ele>
        <time>2014-05-25T06:47:17Z</time>
      </trkpt>
      <trkpt lat="50.17419" lon="3.66524">
        <ele>162.6</ele>
        <time>2014-05-25T06:47:18Z</time>
      </trkpt>
      <trkpt lat="50.17399" lon="3.66545">
        <ele>164.04</ele>
        <time>2014-05-25T06:47:29Z</time>
      </trkpt>
      <trkpt lat="50.17377" lon="3.66564">
        <ele>165.96</ele>
        <time>2014-05-25T06:47:41Z</time>
      </trkpt>
      <trkpt lat="50.17358" lon="3.66584">
        <ele>166.45</ele>
        <time>2014-05-25T06:47:55Z</time>
      </trkpt>
      <trkpt lat="50.17347" lon="3.66596">
        <ele>166.45</ele>
        <time>2014-05-25T06:48:09Z</time>
      </trkpt>
      <trkpt lat="50.17323" lon="3.66609">
        <ele>167.41</ele>
        <time>2014-05-25T06:48:22Z</time>
      </trkpt>
      <trkpt lat="50.173" lon="3.66621">
        <ele>167.41</ele>
        <time>2014-05-25T06:48:36Z</time>
      </trkpt>
      <trkpt lat="50.17268" lon="3.6664">
        <ele>167.41</ele>
        <time>2014-05-25T06:48:50Z</time>
      </trkpt>
      <trkpt lat="50.17227" lon="3.66672">
        <ele>166.45</ele>
        <time>2014-05-25T06:49:04Z</time>
      </trkpt>
      <trkpt lat="50.17185" lon="3.667">
        <ele>165</ele>
        <time>2014-05-25T06:49:16Z</time>
      </trkpt>
      <trkpt lat="50.17138" lon="3.66729">
        <ele>163.08</ele>
        <time>2014-05-25T06:49:28Z</time>
      </trkpt>
      <trkpt lat="50.17111" lon="3.66745">
        <ele>162.12</ele>
        <time>2014-05-25T06:49:34Z</time>
      </trkpt>
      <trkpt lat="50.17085" lon="3.66758">
        <ele>160.68</ele>
        <time>2014-05-25T06:49:44Z</time>
      </trkpt>
      <trkpt lat="50.17069" lon="3.66759">
        <ele>160.68</ele>
        <time>2014-05-25T06:49:56Z</time>
      </trkpt>
      <trkpt lat="50.17061" lon="3.66756">
        <ele>160.68</ele>
        <time>2014-05-25T06:50:13Z</time>
      </trkpt>
      <trkpt lat="50.17057" lon="3.66756">
        <ele>161.16</ele>
        <time>2014-05-25T06:50:37Z</time>
      </trkpt>
      <trkpt lat="50.17054" lon="3.66767">
        <ele>161.64</ele>
        <time>2014-05-25T06:51:08Z</time>
      </trkpt>
      <trkpt lat="50.17051" lon="3.66775">
        <ele>161.64</ele>
        <time>2014-05-25T06:51:33Z</time>
      </trkpt>
      <trkpt lat="50.17046" lon="3.66771">
        <ele>162.12</ele>
        <time>2014-05-25T06:51:57Z</time>
      </trkpt>
      <trkpt lat="50.17021" lon="3.66779">
        <ele>163.08</ele>
        <time>2014-05-25T06:52:08Z</time>
      </trkpt>
      <trkpt lat="50.17017" lon="3.66779">
        <ele>163.08</ele>
        <time>2014-05-25T06:52:09Z</time>
      </trkpt>
      <trkpt lat="50.17012" lon="3.6678">
        <ele>163.08</ele>
        <time>2014-05-25T06:52:10Z</time>
      </trkpt>
      <trkpt lat="50.17" lon="3.66781">
        <ele>163.56</ele>
        <time>2014-05-25T06:52:13Z</time>
      </trkpt>
      <trkpt lat="50.16995" lon="3.66782">
        <ele>163.56</ele>
        <time>2014-05-25T06:52:14Z</time>
      </trkpt>
      <trkpt lat="50.16991" lon="3.66783">
        <ele>163.56</ele>
        <time>2014-05-25T06:52:15Z</time>
      </trkpt>
      <trkpt lat="50.16987" lon="3.66784">
        <ele>164.04</ele>
        <time>2014-05-25T06:52:16Z</time>
      </trkpt>
      <trkpt lat="50.16984" lon="3.66784">
        <ele>164.04</ele>
        <time>2014-05-25T06:52:17Z</time>
      </trkpt>
      <trkpt lat="50.1698" lon="3.66785">
        <ele>164.04</ele>
        <time>2014-05-25T06:52:18Z</time>
      </trkpt>
      <trkpt lat="50.16976" lon="3.66786">
        <ele>164.04</ele>
        <time>2014-05-25T06:52:19Z</time>
      </trkpt>
      <trkpt lat="50.16973" lon="3.66786">
        <ele>164.04</ele>
        <time>2014-05-25T06:52:20Z</time>
      </trkpt>
      <trkpt lat="50.16969" lon="3.66786">
        <ele>164.04</ele>
        <time>2014-05-25T06:52:21Z</time>
      </trkpt>
      <trkpt lat="50.16928" lon="3.66791">
        <ele>165.96</ele>
        <time>2014-05-25T06:52:32Z</time>
      </trkpt>
      <trkpt lat="50.16897" lon="3.66797">
        <ele>166.45</ele>
        <time>2014-05-25T06:52:43Z</time>
      </trkpt>
      <trkpt lat="50.1687" lon="3.66817">
        <ele>166.93</ele>
        <time>2014-05-25T06:52:53Z</time>
      </trkpt>
      <trkpt lat="50.16852" lon="3.66858">
        <ele>167.89</ele>
        <time>2014-05-25T06:53:04Z</time>
      </trkpt>
      <trkpt lat="50.16808" lon="3.66865">
        <ele>167.89</ele>
        <time>2014-05-25T06:53:16Z</time>
      </trkpt>
      <trkpt lat="50.16757" lon="3.66874">
        <ele>168.37</ele>
        <time>2014-05-25T06:53:29Z</time>
      </trkpt>
      <trkpt lat="50.16709" lon="3.66884">
        <ele>169.33</ele>
        <time>2014-05-25T06:53:41Z</time>
      </trkpt>
      <trkpt lat="50.1666" lon="3.66893">
        <ele>169.81</ele>
        <time>2014-05-25T06:53:54Z</time>
      </trkpt>
      <trkpt lat="50.16613" lon="3.66903">
        <ele>170.29</ele>
        <time>2014-05-25T06:54:06Z</time>
      </trkpt>
      <trkpt lat="50.16605" lon="3.66906">
        <ele>170.29</ele>
        <time>2014-05-25T06:54:08Z</time>
      </trkpt>
      <trkpt lat="50.16561" lon="3.66916">
        <ele>171.73</ele>
        <time>2014-05-25T06:54:19Z</time>
      </trkpt>
      <trkpt lat="50.16513" lon="3.66929">
        <ele>172.21</ele>
        <time>2014-05-25T06:54:31Z</time>
      </trkpt>
      <trkpt lat="50.16459" lon="3.66943">
        <ele>172.69</ele>
        <time>2014-05-25T06:54:44Z</time>
      </trkpt>
      <trkpt lat="50.16406" lon="3.66957">
        <ele>173.17</ele>
        <time>2014-05-25T06:54:57Z</time>
      </trkpt>
      <trkpt lat="50.1639" lon="3.66961">
        <ele>173.17</ele>
        <time>2014-05-25T06:55:01Z</time>
      </trkpt>
      <trkpt lat="50.1635" lon="3.66973">
        <ele>173.66</ele>
        <time>2014-05-25T06:55:11Z</time>
      </trkpt>
      <trkpt lat="50.16325" lon="3.66975">
        <ele>173.66</ele>
        <time>2014-05-25T06:55:17Z</time>
      </trkpt>
      <trkpt lat="50.1632" lon="3.66977">
        <ele>173.66</ele>
        <time>2014-05-25T06:55:18Z</time>
      </trkpt>
      <trkpt lat="50.16314" lon="3.66978">
        <ele>173.66</ele>
        <time>2014-05-25T06:55:19Z</time>
      </trkpt>
      <trkpt lat="50.16309" lon="3.6698">
        <ele>173.66</ele>
        <time>2014-05-25T06:55:20Z</time>
      </trkpt>
      <trkpt lat="50.16304" lon="3.66982">
        <ele>173.66</ele>
        <time>2014-05-25T06:55:21Z</time>
      </trkpt>
      <trkpt lat="50.163" lon="3.66983">
        <ele>173.66</ele>
        <time>2014-05-25T06:55:22Z</time>
      </trkpt>
      <trkpt lat="50.16252" lon="3.66994">
        <ele>173.66</ele>
        <time>2014-05-25T06:55:34Z</time>
      </trkpt>
      <trkpt lat="50.16198" lon="3.67006">
        <ele>172.21</ele>
        <time>2014-05-25T06:55:48Z</time>
      </trkpt>
      <trkpt lat="50.16153" lon="3.6702">
        <ele>172.21</ele>
        <time>2014-05-25T06:55:59Z</time>
      </trkpt>
      <trkpt lat="50.16098" lon="3.67032">
        <ele>170.77</ele>
        <time>2014-05-25T06:56:12Z</time>
      </trkpt>
      <trkpt lat="50.16074" lon="3.6704">
        <ele>170.29</ele>
        <time>2014-05-25T06:56:17Z</time>
      </trkpt>
      <trkpt lat="50.16007" lon="3.67057">
        <ele>169.33</ele>
        <time>2014-05-25T06:56:29Z</time>
      </trkpt>
      <trkpt lat="50.16003" lon="3.67058">
        <ele>169.33</ele>
        <time>2014-05-25T06:56:30Z</time>
      </trkpt>
      <trkpt lat="50.15998" lon="3.67059">
        <ele>169.33</ele>
        <time>2014-05-25T06:56:31Z</time>
      </trkpt>
      <trkpt lat="50.15989" lon="3.67062">
        <ele>169.33</ele>
        <time>2014-05-25T06:56:33Z</time>
      </trkpt>
      <trkpt lat="50.15984" lon="3.67064">
        <ele>169.33</ele>
        <time>2014-05-25T06:56:34Z</time>
      </trkpt>
      <trkpt lat="50.15938" lon="3.67072">
        <ele>169.33</ele>
        <time>2014-05-25T06:56:43Z</time>
      </trkpt>
      <trkpt lat="50.15879" lon="3.67092">
        <ele>167.41</ele>
        <time>2014-05-25T06:56:55Z</time>
      </trkpt>
      <trkpt lat="50.15864" lon="3.67104">
        <ele>165.96</ele>
        <time>2014-05-25T06:57:05Z</time>
      </trkpt>
      <trkpt lat="50.15857" lon="3.67108">
        <ele>165.96</ele>
        <time>2014-05-25T06:57:09Z</time>
      </trkpt>
      <trkpt lat="50.15856" lon="3.67107">
        <ele>165.96</ele>
        <time>2014-05-25T06:57:10Z</time>
      </trkpt>
      <trkpt lat="50.15852" lon="3.67103">
        <ele>165.48</ele>
        <time>2014-05-25T06:57:13Z</time>
      </trkpt>
      <trkpt lat="50.15849" lon="3.67104">
        <ele>165.48</ele>
        <time>2014-05-25T06:57:14Z</time>
      </trkpt>
      <trkpt lat="50.15846" lon="3.67105">
        <ele>165.48</ele>
        <time>2014-05-25T06:57:15Z</time>
      </trkpt>
      <trkpt lat="50.15806" lon="3.67118">
        <ele>164.04</ele>
        <time>2014-05-25T06:57:26Z</time>
      </trkpt>
      <trkpt lat="50.15764" lon="3.67133">
        <ele>165.48</ele>
        <time>2014-05-25T06:57:36Z</time>
      </trkpt>
      <trkpt lat="50.15739" lon="3.67139">
        <ele>166.45</ele>
        <time>2014-05-25T06:57:43Z</time>
      </trkpt>
      <trkpt lat="50.15738" lon="3.67137">
        <ele>166.45</ele>
        <time>2014-05-25T06:57:44Z</time>
      </trkpt>
      <trkpt lat="50.15737" lon="3.67135">
        <ele>166.45</ele>
        <time>2014-05-25T06:57:45Z</time>
      </trkpt>
      <trkpt lat="50.15737" lon="3.67132">
        <ele>167.41</ele>
        <time>2014-05-25T06:57:46Z</time>
      </trkpt>
      <trkpt lat="50.15736" lon="3.67129">
        <ele>167.41</ele>
        <time>2014-05-25T06:57:47Z</time>
      </trkpt>
      <trkpt lat="50.15736" lon="3.67127">
        <ele>167.41</ele>
        <time>2014-05-25T06:57:48Z</time>
      </trkpt>
      <trkpt lat="50.15733" lon="3.67122">
        <ele>167.41</ele>
        <time>2014-05-25T06:57:50Z</time>
      </trkpt>
      <trkpt lat="50.15731" lon="3.6712">
        <ele>167.41</ele>
        <time>2014-05-25T06:57:51Z</time>
      </trkpt>
      <trkpt lat="50.15731" lon="3.67118">
        <ele>167.41</ele>
        <time>2014-05-25T06:57:52Z</time>
      </trkpt>
      <trkpt lat="50.1573" lon="3.67115">
        <ele>167.41</ele>
        <time>2014-05-25T06:57:53Z</time>
      </trkpt>
      <trkpt lat="50.1573" lon="3.67113">
        <ele>167.41</ele>
        <time>2014-05-25T06:57:54Z</time>
      </trkpt>
      <trkpt lat="50.15732" lon="3.67096">
        <ele>167.89</ele>
        <time>2014-05-25T06:58:05Z</time>
      </trkpt>
      <trkpt lat="50.15733" lon="3.67076">
        <ele>167.89</ele>
        <time>2014-05-25T06:58:16Z</time>
      </trkpt>
      <trkpt lat="50.15737" lon="3.67056">
        <ele>167.89</ele>
        <time>2014-05-25T06:58:20Z</time>
      </trkpt>
      <trkpt lat="50.15747" lon="3.67025">
        <ele>165.48</ele>
        <time>2014-05-25T06:58:25Z</time>
      </trkpt>
      <trkpt lat="50.15747" lon="3.67018">
        <ele>165.48</ele>
        <time>2014-05-25T06:58:27Z</time>
      </trkpt>
      <trkpt lat="50.15734" lon="3.67039">
        <ele>167.89</ele>
        <time>2014-05-25T06:58:35Z</time>
      </trkpt>
      <trkpt lat="50.15723" lon="3.67065">
        <ele>167.89</ele>
        <time>2014-05-25T06:58:44Z</time>
      </trkpt>
      <trkpt lat="50.15715" lon="3.67059">
        <ele>168.37</ele>
        <time>2014-05-25T06:58:50Z</time>
      </trkpt>
      <trkpt lat="50.15694" lon="3.67022">
        <ele>168.85</ele>
        <time>2014-05-25T06:59:00Z</time>
      </trkpt>
      <trkpt lat="50.15683" lon="3.67002">
        <ele>168.85</ele>
        <time>2014-05-25T06:59:05Z</time>
      </trkpt>
      <trkpt lat="50.15683" lon="3.66996">
        <ele>168.85</ele>
        <time>2014-05-25T06:59:06Z</time>
      </trkpt>
      <trkpt lat="50.15682" lon="3.6699">
        <ele>168.85</ele>
        <time>2014-05-25T06:59:07Z</time>
      </trkpt>
      <trkpt lat="50.15682" lon="3.66965">
        <ele>168.85</ele>
        <time>2014-05-25T06:59:12Z</time>
      </trkpt>
      <trkpt lat="50.15681" lon="3.66962">
        <ele>168.85</ele>
        <time>2014-05-25T06:59:13Z</time>
      </trkpt>
      <trkpt lat="50.15679" lon="3.66959">
        <ele>168.85</ele>
        <time>2014-05-25T06:59:14Z</time>
      </trkpt>
      <trkpt lat="50.15676" lon="3.66956">
        <ele>169.33</ele>
        <time>2014-05-25T06:59:15Z</time>
      </trkpt>
      <trkpt lat="50.15675" lon="3.66954">
        <ele>169.33</ele>
        <time>2014-05-25T06:59:16Z</time>
      </trkpt>
      <trkpt lat="50.15674" lon="3.66951">
        <ele>169.33</ele>
        <time>2014-05-25T06:59:17Z</time>
      </trkpt>
      <trkpt lat="50.15672" lon="3.66948">
        <ele>169.81</ele>
        <time>2014-05-25T06:59:18Z</time>
      </trkpt>
      <trkpt lat="50.15654" lon="3.66921">
        <ele>170.77</ele>
        <time>2014-05-25T06:59:29Z</time>
      </trkpt>
      <trkpt lat="50.15649" lon="3.6693">
        <ele>170.77</ele>
        <time>2014-05-25T06:59:35Z</time>
      </trkpt>
      <trkpt lat="50.15646" lon="3.66937">
        <ele>170.77</ele>
        <time>2014-05-25T06:59:38Z</time>
      </trkpt>
      <trkpt lat="50.15642" lon="3.66939">
        <ele>170.77</ele>
        <time>2014-05-25T06:59:41Z</time>
      </trkpt>
      <trkpt lat="50.15635" lon="3.66928">
        <ele>170.77</ele>
        <time>2014-05-25T06:59:47Z</time>
      </trkpt>
      <trkpt lat="50.15634" lon="3.66925">
        <ele>170.77</ele>
        <time>2014-05-25T06:59:48Z</time>
      </trkpt>
      <trkpt lat="50.15632" lon="3.66923">
        <ele>170.77</ele>
        <time>2014-05-25T06:59:49Z</time>
      </trkpt>
      <trkpt lat="50.15631" lon="3.6692">
        <ele>170.77</ele>
        <time>2014-05-25T06:59:50Z</time>
      </trkpt>
      <trkpt lat="50.15629" lon="3.66917">
        <ele>170.77</ele>
        <time>2014-05-25T06:59:51Z</time>
      </trkpt>
      <trkpt lat="50.15609" lon="3.66862">
        <ele>172.21</ele>
        <time>2014-05-25T07:00:05Z</time>
      </trkpt>
      <trkpt lat="50.15604" lon="3.66845">
        <ele>172.21</ele>
        <time>2014-05-25T07:00:12Z</time>
      </trkpt>
      <trkpt lat="50.15586" lon="3.66807">
        <ele>173.17</ele>
        <time>2014-05-25T07:00:26Z</time>
      </trkpt>
      <trkpt lat="50.15574" lon="3.66776">
        <ele>172.69</ele>
        <time>2014-05-25T07:00:36Z</time>
      </trkpt>
      <trkpt lat="50.15575" lon="3.66772">
        <ele>172.69</ele>
        <time>2014-05-25T07:00:47Z</time>
      </trkpt>
      <trkpt lat="50.15573" lon="3.6677">
        <ele>172.69</ele>
        <time>2014-05-25T07:00:52Z</time>
      </trkpt>
      <trkpt lat="50.15571" lon="3.66769">
        <ele>172.69</ele>
        <time>2014-05-25T07:00:53Z</time>
      </trkpt>
      <trkpt lat="50.1557" lon="3.66767">
        <ele>172.69</ele>
        <time>2014-05-25T07:00:54Z</time>
      </trkpt>
      <trkpt lat="50.15568" lon="3.66765">
        <ele>172.69</ele>
        <time>2014-05-25T07:00:55Z</time>
      </trkpt>
      <trkpt lat="50.15567" lon="3.66763">
        <ele>172.69</ele>
        <time>2014-05-25T07:00:56Z</time>
      </trkpt>
      <trkpt lat="50.15565" lon="3.6676">
        <ele>172.69</ele>
        <time>2014-05-25T07:00:57Z</time>
      </trkpt>
      <trkpt lat="50.15545" lon="3.66709">
        <ele>171.25</ele>
        <time>2014-05-25T07:01:10Z</time>
      </trkpt>
      <trkpt lat="50.15529" lon="3.66664">
        <ele>171.25</ele>
        <time>2014-05-25T07:01:22Z</time>
      </trkpt>
      <trkpt lat="50.15525" lon="3.66655">
        <ele>172.69</ele>
        <time>2014-05-25T07:01:25Z</time>
      </trkpt>
      <trkpt lat="50.15508" lon="3.66609">
        <ele>173.66</ele>
        <time>2014-05-25T07:01:39Z</time>
      </trkpt>
      <trkpt lat="50.15484" lon="3.666">
        <ele>174.14</ele>
        <time>2014-05-25T07:01:49Z</time>
      </trkpt>
      <trkpt lat="50.1546" lon="3.6662">
        <ele>174.14</ele>
        <time>2014-05-25T07:01:59Z</time>
      </trkpt>
      <trkpt lat="50.15458" lon="3.66622">
        <ele>174.14</ele>
        <time>2014-05-25T07:02:00Z</time>
      </trkpt>
      <trkpt lat="50.15427" lon="3.66643">
        <ele>173.66</ele>
        <time>2014-05-25T07:02:11Z</time>
      </trkpt>
      <trkpt lat="50.15401" lon="3.66663">
        <ele>173.66</ele>
        <time>2014-05-25T07:02:18Z</time>
      </trkpt>
      <trkpt lat="50.15375" lon="3.6668">
        <ele>172.69</ele>
        <time>2014-05-25T07:02:25Z</time>
      </trkpt>
      <trkpt lat="50.15364" lon="3.66688">
        <ele>172.69</ele>
        <time>2014-05-25T07:02:28Z</time>
      </trkpt>
      <trkpt lat="50.15319" lon="3.66722">
        <ele>170.29</ele>
        <time>2014-05-25T07:02:40Z</time>
      </trkpt>
      <trkpt lat="50.15311" lon="3.66727">
        <ele>169.81</ele>
        <time>2014-05-25T07:02:42Z</time>
      </trkpt>
      <trkpt lat="50.15307" lon="3.66729">
        <ele>169.81</ele>
        <time>2014-05-25T07:02:43Z</time>
      </trkpt>
      <trkpt lat="50.15303" lon="3.66732">
        <ele>169.81</ele>
        <time>2014-05-25T07:02:44Z</time>
      </trkpt>
      <trkpt lat="50.1526" lon="3.66764">
        <ele>167.41</ele>
        <time>2014-05-25T07:02:57Z</time>
      </trkpt>
      <trkpt lat="50.15235" lon="3.6678">
        <ele>166.93</ele>
        <time>2014-05-25T07:03:07Z</time>
      </trkpt>
      <trkpt lat="50.1519" lon="3.66815">
        <ele>168.37</ele>
        <time>2014-05-25T07:03:22Z</time>
      </trkpt>
      <trkpt lat="50.15147" lon="3.66846">
        <ele>170.29</ele>
        <time>2014-05-25T07:03:38Z</time>
      </trkpt>
      <trkpt lat="50.15114" lon="3.66871">
        <ele>171.73</ele>
        <time>2014-05-25T07:03:51Z</time>
      </trkpt>
      <trkpt lat="50.15113" lon="3.66873">
        <ele>171.73</ele>
        <time>2014-05-25T07:03:52Z</time>
      </trkpt>
      <trkpt lat="50.15112" lon="3.66875">
        <ele>172.21</ele>
        <time>2014-05-25T07:03:53Z</time>
      </trkpt>
      <trkpt lat="50.15111" lon="3.66877">
        <ele>172.21</ele>
        <time>2014-05-25T07:03:54Z</time>
      </trkpt>
      <trkpt lat="50.1511" lon="3.66878">
        <ele>171.73</ele>
        <time>2014-05-25T07:03:55Z</time>
      </trkpt>
      <trkpt lat="50.15109" lon="3.6688">
        <ele>171.73</ele>
        <time>2014-05-25T07:03:56Z</time>
      </trkpt>
      <trkpt lat="50.15108" lon="3.66881">
        <ele>171.73</ele>
        <time>2014-05-25T07:03:57Z</time>
      </trkpt>
      <trkpt lat="50.15107" lon="3.66882">
        <ele>172.21</ele>
        <time>2014-05-25T07:04:08Z</time>
      </trkpt>
      <trkpt lat="50.15109" lon="3.66882">
        <ele>172.21</ele>
        <time>2014-05-25T07:04:32Z</time>
      </trkpt>
      <trkpt lat="50.15109" lon="3.66883">
        <ele>172.21</ele>
        <time>2014-05-25T07:04:56Z</time>
      </trkpt>
      <trkpt lat="50.1511" lon="3.66881">
        <ele>171.73</ele>
        <time>2014-05-25T07:05:20Z</time>
      </trkpt>
      <trkpt lat="50.15109" lon="3.66881">
        <ele>171.73</ele>
        <time>2014-05-25T07:05:43Z</time>
      </trkpt>
      <trkpt lat="50.15107" lon="3.66883">
        <ele>171.73</ele>
        <time>2014-05-25T07:06:08Z</time>
      </trkpt>
      <trkpt lat="50.15107" lon="3.66882">
        <ele>171.25</ele>
        <time>2014-05-25T07:06:33Z</time>
      </trkpt>
      <trkpt lat="50.15104" lon="3.66884">
        <ele>171.25</ele>
        <time>2014-05-25T07:06:54Z</time>
      </trkpt>
      <trkpt lat="50.1511" lon="3.66879">
        <ele>170.77</ele>
        <time>2014-05-25T07:07:14Z</time>
      </trkpt>
      <trkpt lat="50.15107" lon="3.66879">
        <ele>170.77</ele>
        <time>2014-05-25T07:07:33Z</time>
      </trkpt>
      <trkpt lat="50.15107" lon="3.66879">
        <ele>170.77</ele>
        <time>2014-05-25T07:07:53Z</time>
      </trkpt>
      <trkpt lat="50.15107" lon="3.66879">
        <ele>170.29</ele>
        <time>2014-05-25T07:08:17Z</time>
      </trkpt>
      <trkpt lat="50.15103" lon="3.6688">
        <ele>170.29</ele>
        <time>2014-05-25T07:08:37Z</time>
      </trkpt>
      <trkpt lat="50.15084" lon="3.66896">
        <ele>170.29</ele>
        <time>2014-05-25T07:08:46Z</time>
      </trkpt>
      <trkpt lat="50.1506" lon="3.66925">
        <ele>170.77</ele>
        <time>2014-05-25T07:08:57Z</time>
      </trkpt>
      <trkpt lat="50.15035" lon="3.66956">
        <ele>171.73</ele>
        <time>2014-05-25T07:09:07Z</time>
      </trkpt>
      <trkpt lat="50.15034" lon="3.6696">
        <ele>171.73</ele>
        <time>2014-05-25T07:09:08Z</time>
      </trkpt>
      <trkpt lat="50.15033" lon="3.66964">
        <ele>171.73</ele>
        <time>2014-05-25T07:09:09Z</time>
      </trkpt>
      <trkpt lat="50.1503" lon="3.66967">
        <ele>171.73</ele>
        <time>2014-05-25T07:09:10Z</time>
      </trkpt>
      <trkpt lat="50.15027" lon="3.66969">
        <ele>171.73</ele>
        <time>2014-05-25T07:09:11Z</time>
      </trkpt>
      <trkpt lat="50.15024" lon="3.66972">
        <ele>171.73</ele>
        <time>2014-05-25T07:09:12Z</time>
      </trkpt>
      <trkpt lat="50.15022" lon="3.66975">
        <ele>172.21</ele>
        <time>2014-05-25T07:09:13Z</time>
      </trkpt>
      <trkpt lat="50.15019" lon="3.66979">
        <ele>172.21</ele>
        <time>2014-05-25T07:09:14Z</time>
      </trkpt>
      <trkpt lat="50.15017" lon="3.66982">
        <ele>172.21</ele>
        <time>2014-05-25T07:09:15Z</time>
      </trkpt>
      <trkpt lat="50.14986" lon="3.67019">
        <ele>173.17</ele>
        <time>2014-05-25T07:09:27Z</time>
      </trkpt>
      <trkpt lat="50.14955" lon="3.67056">
        <ele>174.14</ele>
        <time>2014-05-25T07:09:40Z</time>
      </trkpt>
      <trkpt lat="50.14941" lon="3.6707">
        <ele>174.14</ele>
        <time>2014-05-25T07:09:51Z</time>
      </trkpt>
      <trkpt lat="50.14929" lon="3.67081">
        <ele>174.14</ele>
        <time>2014-05-25T07:10:02Z</time>
      </trkpt>
      <trkpt lat="50.14928" lon="3.67084">
        <ele>174.14</ele>
        <time>2014-05-25T07:10:03Z</time>
      </trkpt>
      <trkpt lat="50.14927" lon="3.67086">
        <ele>174.14</ele>
        <time>2014-05-25T07:10:04Z</time>
      </trkpt>
      <trkpt lat="50.14924" lon="3.67088">
        <ele>174.14</ele>
        <time>2014-05-25T07:10:05Z</time>
      </trkpt>
      <trkpt lat="50.14922" lon="3.67091">
        <ele>174.14</ele>
        <time>2014-05-25T07:10:06Z</time>
      </trkpt>
      <trkpt lat="50.1492" lon="3.67093">
        <ele>174.14</ele>
        <time>2014-05-25T07:10:07Z</time>
      </trkpt>
      <trkpt lat="50.14918" lon="3.67094">
        <ele>174.14</ele>
        <time>2014-05-25T07:10:08Z</time>
      </trkpt>
      <trkpt lat="50.14915" lon="3.67096">
        <ele>174.14</ele>
        <time>2014-05-25T07:10:09Z</time>
      </trkpt>
      <trkpt lat="50.14913" lon="3.67098">
        <ele>174.14</ele>
        <time>2014-05-25T07:10:10Z</time>
      </trkpt>
      <trkpt lat="50.1491" lon="3.671">
        <ele>174.62</ele>
        <time>2014-05-25T07:10:11Z</time>
      </trkpt>
      <trkpt lat="50.14908" lon="3.67102">
        <ele>174.62</ele>
        <time>2014-05-25T07:10:12Z</time>
      </trkpt>
      <trkpt lat="50.14906" lon="3.67104">
        <ele>174.62</ele>
        <time>2014-05-25T07:10:13Z</time>
      </trkpt>
      <trkpt lat="50.14904" lon="3.67107">
        <ele>174.62</ele>
        <time>2014-05-25T07:10:14Z</time>
      </trkpt>
      <trkpt lat="50.14903" lon="3.6711">
        <ele>174.62</ele>
        <time>2014-05-25T07:10:15Z</time>
      </trkpt>
      <trkpt lat="50.14901" lon="3.67112">
        <ele>174.62</ele>
        <time>2014-05-25T07:10:16Z</time>
      </trkpt>
      <trkpt lat="50.14899" lon="3.67115">
        <ele>174.62</ele>
        <time>2014-05-25T07:10:17Z</time>
      </trkpt>
      <trkpt lat="50.14889" lon="3.67127">
        <ele>174.62</ele>
        <time>2014-05-25T07:10:22Z</time>
      </trkpt>
      <trkpt lat="50.14887" lon="3.67129">
        <ele>174.62</ele>
        <time>2014-05-25T07:10:23Z</time>
      </trkpt>
      <trkpt lat="50.14884" lon="3.67131">
        <ele>174.62</ele>
        <time>2014-05-25T07:10:24Z</time>
      </trkpt>
      <trkpt lat="50.14855" lon="3.67164">
        <ele>176.06</ele>
        <time>2014-05-25T07:10:36Z</time>
      </trkpt>
      <trkpt lat="50.14823" lon="3.67201">
        <ele>176.54</ele>
        <time>2014-05-25T07:10:48Z</time>
      </trkpt>
      <trkpt lat="50.14788" lon="3.67244">
        <ele>177.02</ele>
        <time>2014-05-25T07:11:01Z</time>
      </trkpt>
      <trkpt lat="50.14781" lon="3.67257">
        <ele>177.02</ele>
        <time>2014-05-25T07:11:05Z</time>
      </trkpt>
      <trkpt lat="50.14779" lon="3.67259">
        <ele>177.02</ele>
        <time>2014-05-25T07:11:06Z</time>
      </trkpt>
      <trkpt lat="50.14777" lon="3.6726">
        <ele>177.02</ele>
        <time>2014-05-25T07:11:07Z</time>
      </trkpt>
      <trkpt lat="50.14775" lon="3.67262">
        <ele>177.02</ele>
        <time>2014-05-25T07:11:08Z</time>
      </trkpt>
      <trkpt lat="50.14772" lon="3.67264">
        <ele>177.02</ele>
        <time>2014-05-25T07:11:09Z</time>
      </trkpt>
      <trkpt lat="50.14769" lon="3.67266">
        <ele>177.02</ele>
        <time>2014-05-25T07:11:10Z</time>
      </trkpt>
      <trkpt lat="50.14767" lon="3.67269">
        <ele>177.02</ele>
        <time>2014-05-25T07:11:11Z</time>
      </trkpt>
      <trkpt lat="50.14765" lon="3.67272">
        <ele>177.02</ele>
        <time>2014-05-25T07:11:12Z</time>
      </trkpt>
      <trkpt lat="50.14732" lon="3.67309">
        <ele>177.02</ele>
        <time>2014-05-25T07:11:24Z</time>
      </trkpt>
      <trkpt lat="50.14728" lon="3.67316">
        <ele>177.02</ele>
        <time>2014-05-25T07:11:26Z</time>
      </trkpt>
      <trkpt lat="50.14727" lon="3.67318">
        <ele>177.02</ele>
        <time>2014-05-25T07:11:27Z</time>
      </trkpt>
      <trkpt lat="50.14724" lon="3.67323">
        <ele>177.02</ele>
        <time>2014-05-25T07:11:30Z</time>
      </trkpt>
      <trkpt lat="50.14723" lon="3.67323">
        <ele>177.02</ele>
        <time>2014-05-25T07:11:31Z</time>
      </trkpt>
      <trkpt lat="50.14712" lon="3.67331">
        <ele>177.02</ele>
        <time>2014-05-25T07:11:36Z</time>
      </trkpt>
      <trkpt lat="50.14711" lon="3.67334">
        <ele>177.02</ele>
        <time>2014-05-25T07:11:37Z</time>
      </trkpt>
      <trkpt lat="50.1468" lon="3.67369">
        <ele>177.02</ele>
        <time>2014-05-25T07:11:49Z</time>
      </trkpt>
      <trkpt lat="50.14633" lon="3.67427">
        <ele>177.98</ele>
        <time>2014-05-25T07:12:04Z</time>
      </trkpt>
      <trkpt lat="50.14594" lon="3.67474">
        <ele>178.46</ele>
        <time>2014-05-25T07:12:18Z</time>
      </trkpt>
      <trkpt lat="50.14562" lon="3.67512">
        <ele>178.94</ele>
        <time>2014-05-25T07:12:30Z</time>
      </trkpt>
      <trkpt lat="50.14533" lon="3.67546">
        <ele>178.94</ele>
        <time>2014-05-25T07:12:42Z</time>
      </trkpt>
      <trkpt lat="50.14502" lon="3.67583">
        <ele>178.94</ele>
        <time>2014-05-25T07:12:54Z</time>
      </trkpt>
      <trkpt lat="50.1449" lon="3.67594">
        <ele>178.94</ele>
        <time>2014-05-25T07:12:59Z</time>
      </trkpt>
      <trkpt lat="50.14488" lon="3.67598">
        <ele>178.94</ele>
        <time>2014-05-25T07:13:00Z</time>
      </trkpt>
      <trkpt lat="50.14464" lon="3.67632">
        <ele>179.42</ele>
        <time>2014-05-25T07:13:12Z</time>
      </trkpt>
      <trkpt lat="50.14426" lon="3.67642">
        <ele>179.42</ele>
        <time>2014-05-25T07:13:22Z</time>
      </trkpt>
      <trkpt lat="50.14361" lon="3.67638">
        <ele>176.54</ele>
        <time>2014-05-25T07:13:32Z</time>
      </trkpt>
      <trkpt lat="50.14311" lon="3.67631">
        <ele>175.1</ele>
        <time>2014-05-25T07:13:39Z</time>
      </trkpt>
      <trkpt lat="50.14293" lon="3.67629">
        <ele>175.1</ele>
        <time>2014-05-25T07:13:42Z</time>
      </trkpt>
      <trkpt lat="50.14288" lon="3.6763">
        <ele>175.1</ele>
        <time>2014-05-25T07:13:43Z</time>
      </trkpt>
      <trkpt lat="50.14284" lon="3.67631">
        <ele>175.1</ele>
        <time>2014-05-25T07:13:44Z</time>
      </trkpt>
      <trkpt lat="50.14281" lon="3.6763">
        <ele>174.62</ele>
        <time>2014-05-25T07:13:45Z</time>
      </trkpt>
      <trkpt lat="50.14276" lon="3.6763">
        <ele>174.62</ele>
        <time>2014-05-25T07:13:46Z</time>
      </trkpt>
      <trkpt lat="50.14272" lon="3.6763">
        <ele>174.62</ele>
        <time>2014-05-25T07:13:47Z</time>
      </trkpt>
      <trkpt lat="50.14268" lon="3.6763">
        <ele>174.62</ele>
        <time>2014-05-25T07:13:48Z</time>
      </trkpt>
      <trkpt lat="50.14254" lon="3.67625">
        <ele>174.62</ele>
        <time>2014-05-25T07:13:53Z</time>
      </trkpt>
      <trkpt lat="50.14252" lon="3.67625">
        <ele>174.62</ele>
        <time>2014-05-25T07:13:54Z</time>
      </trkpt>
      <trkpt lat="50.14244" lon="3.67624">
        <ele>174.62</ele>
        <time>2014-05-25T07:13:59Z</time>
      </trkpt>
      <trkpt lat="50.14243" lon="3.67624">
        <ele>174.62</ele>
        <time>2014-05-25T07:14:00Z</time>
      </trkpt>
      <trkpt lat="50.14239" lon="3.67623">
        <ele>173.66</ele>
        <time>2014-05-25T07:14:11Z</time>
      </trkpt>
      <trkpt lat="50.14245" lon="3.67625">
        <ele>173.66</ele>
        <time>2014-05-25T07:14:43Z</time>
      </trkpt>
      <trkpt lat="50.14246" lon="3.67624">
        <ele>173.66</ele>
        <time>2014-05-25T07:15:16Z</time>
      </trkpt>
      <trkpt lat="50.14248" lon="3.67623">
        <ele>173.66</ele>
        <time>2014-05-25T07:15:36Z</time>
      </trkpt>
      <trkpt lat="50.14247" lon="3.67626">
        <ele>173.66</ele>
        <time>2014-05-25T07:16:03Z</time>
      </trkpt>
      <trkpt lat="50.14243" lon="3.67627">
        <ele>173.66</ele>
        <time>2014-05-25T07:16:29Z</time>
      </trkpt>
      <trkpt lat="50.14245" lon="3.67625">
        <ele>173.66</ele>
        <time>2014-05-25T07:17:05Z</time>
      </trkpt>
      <trkpt lat="50.14245" lon="3.67622">
        <ele>173.66</ele>
        <time>2014-05-25T07:17:44Z</time>
      </trkpt>
      <trkpt lat="50.14248" lon="3.67624">
        <ele>173.17</ele>
        <time>2014-05-25T07:18:29Z</time>
      </trkpt>
      <trkpt lat="50.14248" lon="3.67622">
        <ele>173.17</ele>
        <time>2014-05-25T07:18:56Z</time>
      </trkpt>
      <trkpt lat="50.14242" lon="3.67624">
        <ele>173.17</ele>
        <time>2014-05-25T07:19:24Z</time>
      </trkpt>
      <trkpt lat="50.14243" lon="3.67625">
        <ele>173.17</ele>
        <time>2014-05-25T07:19:49Z</time>
      </trkpt>
      <trkpt lat="50.14241" lon="3.67625">
        <ele>173.17</ele>
        <time>2014-05-25T07:20:28Z</time>
      </trkpt>
      <trkpt lat="50.14241" lon="3.67624">
        <ele>173.17</ele>
        <time>2014-05-25T07:20:57Z</time>
      </trkpt>
      <trkpt lat="50.14244" lon="3.6762">
        <ele>173.17</ele>
        <time>2014-05-25T07:21:30Z</time>
      </trkpt>
      <trkpt lat="50.14241" lon="3.67622">
        <ele>173.17</ele>
        <time>2014-05-25T07:21:59Z</time>
      </trkpt>
      <trkpt lat="50.14243" lon="3.67621">
        <ele>173.17</ele>
        <time>2014-05-25T07:22:26Z</time>
      </trkpt>
      <trkpt lat="50.14244" lon="3.67623">
        <ele>173.17</ele>
        <time>2014-05-25T07:22:54Z</time>
      </trkpt>
      <trkpt lat="50.14244" lon="3.6762">
        <ele>173.17</ele>
        <time>2014-05-25T07:23:02Z</time>
      </trkpt>
      <trkpt lat="50.14245" lon="3.67621">
        <ele>174.14</ele>
        <time>2014-05-25T07:23:03Z</time>
      </trkpt>
      <trkpt lat="50.14246" lon="3.67622">
        <ele>174.14</ele>
        <time>2014-05-25T07:23:04Z</time>
      </trkpt>
      <trkpt lat="50.1425" lon="3.67632">
        <ele>174.14</ele>
        <time>2014-05-25T07:23:10Z</time>
      </trkpt>
      <trkpt lat="50.14249" lon="3.67636">
        <ele>174.14</ele>
        <time>2014-05-25T07:23:11Z</time>
      </trkpt>
      <trkpt lat="50.14249" lon="3.67639">
        <ele>174.14</ele>
        <time>2014-05-25T07:23:12Z</time>
      </trkpt>
      <trkpt lat="50.14248" lon="3.67642">
        <ele>174.14</ele>
        <time>2014-05-25T07:23:13Z</time>
      </trkpt>
      <trkpt lat="50.14247" lon="3.67645">
        <ele>174.14</ele>
        <time>2014-05-25T07:23:14Z</time>
      </trkpt>
      <trkpt lat="50.14245" lon="3.67654">
        <ele>174.14</ele>
        <time>2014-05-25T07:23:16Z</time>
      </trkpt>
      <trkpt lat="50.14245" lon="3.67658">
        <ele>174.14</ele>
        <time>2014-05-25T07:23:17Z</time>
      </trkpt>
      <trkpt lat="50.14245" lon="3.67663">
        <ele>174.14</ele>
        <time>2014-05-25T07:23:18Z</time>
      </trkpt>
      <trkpt lat="50.14245" lon="3.67668">
        <ele>174.14</ele>
        <time>2014-05-25T07:23:19Z</time>
      </trkpt>
      <trkpt lat="50.14245" lon="3.67675">
        <ele>174.14</ele>
        <time>2014-05-25T07:23:20Z</time>
      </trkpt>
      <trkpt lat="50.14246" lon="3.67697">
        <ele>174.14</ele>
        <time>2014-05-25T07:23:23Z</time>
      </trkpt>
      <trkpt lat="50.14247" lon="3.67704">
        <ele>174.14</ele>
        <time>2014-05-25T07:23:24Z</time>
      </trkpt>
      <trkpt lat="50.1425" lon="3.67737">
        <ele>174.62</ele>
        <time>2014-05-25T07:23:29Z</time>
      </trkpt>
      <trkpt lat="50.1425" lon="3.67744">
        <ele>174.62</ele>
        <time>2014-05-25T07:23:30Z</time>
      </trkpt>
      <trkpt lat="50.1425" lon="3.67752">
        <ele>174.62</ele>
        <time>2014-05-25T07:23:31Z</time>
      </trkpt>
      <trkpt lat="50.14258" lon="3.67788">
        <ele>175.58</ele>
        <time>2014-05-25T07:23:37Z</time>
      </trkpt>
      <trkpt lat="50.14258" lon="3.67795">
        <ele>175.58</ele>
        <time>2014-05-25T07:23:38Z</time>
      </trkpt>
      <trkpt lat="50.14259" lon="3.67801">
        <ele>175.58</ele>
        <time>2014-05-25T07:23:39Z</time>
      </trkpt>
      <trkpt lat="50.1426" lon="3.67807">
        <ele>175.58</ele>
        <time>2014-05-25T07:23:40Z</time>
      </trkpt>
      <trkpt lat="50.14261" lon="3.67814">
        <ele>175.58</ele>
        <time>2014-05-25T07:23:41Z</time>
      </trkpt>
      <trkpt lat="50.1426" lon="3.6782">
        <ele>175.58</ele>
        <time>2014-05-25T07:23:42Z</time>
      </trkpt>
      <trkpt lat="50.1426" lon="3.67825">
        <ele>175.58</ele>
        <time>2014-05-25T07:23:43Z</time>
      </trkpt>
      <trkpt lat="50.1426" lon="3.6783">
        <ele>175.58</ele>
        <time>2014-05-25T07:23:44Z</time>
      </trkpt>
      <trkpt lat="50.14265" lon="3.67882">
        <ele>176.54</ele>
        <time>2014-05-25T07:23:55Z</time>
      </trkpt>
      <trkpt lat="50.14267" lon="3.67925">
        <ele>177.5</ele>
        <time>2014-05-25T07:24:07Z</time>
      </trkpt>
      <trkpt lat="50.14267" lon="3.67929">
        <ele>177.5</ele>
        <time>2014-05-25T07:24:08Z</time>
      </trkpt>
      <trkpt lat="50.14267" lon="3.67934">
        <ele>177.5</ele>
        <time>2014-05-25T07:24:09Z</time>
      </trkpt>
      <trkpt lat="50.14268" lon="3.67948">
        <ele>177.98</ele>
        <time>2014-05-25T07:24:13Z</time>
      </trkpt>
      <trkpt lat="50.14269" lon="3.67952">
        <ele>177.98</ele>
        <time>2014-05-25T07:24:14Z</time>
      </trkpt>
      <trkpt lat="50.1427" lon="3.67956">
        <ele>177.98</ele>
        <time>2014-05-25T07:24:15Z</time>
      </trkpt>
      <trkpt lat="50.1427" lon="3.67961">
        <ele>177.98</ele>
        <time>2014-05-25T07:24:16Z</time>
      </trkpt>
      <trkpt lat="50.1427" lon="3.67966">
        <ele>177.98</ele>
        <time>2014-05-25T07:24:17Z</time>
      </trkpt>
      <trkpt lat="50.14269" lon="3.67972">
        <ele>177.98</ele>
        <time>2014-05-25T07:24:18Z</time>
      </trkpt>
      <trkpt lat="50.14268" lon="3.67977">
        <ele>177.98</ele>
        <time>2014-05-25T07:24:19Z</time>
      </trkpt>
      <trkpt lat="50.14267" lon="3.67984">
        <ele>177.98</ele>
        <time>2014-05-25T07:24:20Z</time>
      </trkpt>
      <trkpt lat="50.14273" lon="3.6803">
        <ele>178.46</ele>
        <time>2014-05-25T07:24:29Z</time>
      </trkpt>
      <trkpt lat="50.14275" lon="3.6806">
        <ele>178.46</ele>
        <time>2014-05-25T07:24:35Z</time>
      </trkpt>
      <trkpt lat="50.14276" lon="3.68121">
        <ele>178.94</ele>
        <time>2014-05-25T07:24:46Z</time>
      </trkpt>
      <trkpt lat="50.14281" lon="3.68206">
        <ele>179.42</ele>
        <time>2014-05-25T07:24:59Z</time>
      </trkpt>
      <trkpt lat="50.14281" lon="3.68236">
        <ele>179.9</ele>
        <time>2014-05-25T07:25:10Z</time>
      </trkpt>
      <trkpt lat="50.14284" lon="3.68266">
        <ele>180.38</ele>
        <time>2014-05-25T07:25:28Z</time>
      </trkpt>
      <trkpt lat="50.14285" lon="3.68328">
        <ele>181.35</ele>
        <time>2014-05-25T07:25:39Z</time>
      </trkpt>
      <trkpt lat="50.14285" lon="3.684">
        <ele>181.83</ele>
        <time>2014-05-25T07:25:52Z</time>
      </trkpt>
      <trkpt lat="50.14296" lon="3.68465">
        <ele>182.31</ele>
        <time>2014-05-25T07:26:04Z</time>
      </trkpt>
      <trkpt lat="50.1431" lon="3.68508">
        <ele>182.31</ele>
        <time>2014-05-25T07:26:13Z</time>
      </trkpt>
      <trkpt lat="50.14318" lon="3.6854">
        <ele>180.87</ele>
        <time>2014-05-25T07:26:20Z</time>
      </trkpt>
      <trkpt lat="50.14318" lon="3.68545">
        <ele>180.38</ele>
        <time>2014-05-25T07:26:21Z</time>
      </trkpt>
      <trkpt lat="50.14319" lon="3.6855">
        <ele>180.87</ele>
        <time>2014-05-25T07:26:22Z</time>
      </trkpt>
      <trkpt lat="50.14321" lon="3.68564">
        <ele>180.87</ele>
        <time>2014-05-25T07:26:25Z</time>
      </trkpt>
      <trkpt lat="50.1432" lon="3.68571">
        <ele>180.87</ele>
        <time>2014-05-25T07:26:26Z</time>
      </trkpt>
      <trkpt lat="50.1432" lon="3.68577">
        <ele>180.87</ele>
        <time>2014-05-25T07:26:27Z</time>
      </trkpt>
      <trkpt lat="50.1432" lon="3.68584">
        <ele>180.87</ele>
        <time>2014-05-25T07:26:28Z</time>
      </trkpt>
      <trkpt lat="50.14321" lon="3.6859">
        <ele>180.38</ele>
        <time>2014-05-25T07:26:29Z</time>
      </trkpt>
      <trkpt lat="50.14322" lon="3.68596">
        <ele>180.38</ele>
        <time>2014-05-25T07:26:30Z</time>
      </trkpt>
      <trkpt lat="50.14322" lon="3.68602">
        <ele>179.9</ele>
        <time>2014-05-25T07:26:31Z</time>
      </trkpt>
      <trkpt lat="50.14326" lon="3.68622">
        <ele>178.94</ele>
        <time>2014-05-25T07:26:34Z</time>
      </trkpt>
      <trkpt lat="50.14327" lon="3.6863">
        <ele>178.94</ele>
        <time>2014-05-25T07:26:35Z</time>
      </trkpt>
      <trkpt lat="50.14326" lon="3.68668">
        <ele>176.54</ele>
        <time>2014-05-25T07:26:39Z</time>
      </trkpt>
      <trkpt lat="50.14326" lon="3.68679">
        <ele>176.06</ele>
        <time>2014-05-25T07:26:40Z</time>
      </trkpt>
      <trkpt lat="50.14327" lon="3.68689">
        <ele>176.54</ele>
        <time>2014-05-25T07:26:41Z</time>
      </trkpt>
      <trkpt lat="50.14327" lon="3.68698">
        <ele>176.54</ele>
        <time>2014-05-25T07:26:42Z</time>
      </trkpt>
      <trkpt lat="50.14328" lon="3.68708">
        <ele>176.54</ele>
        <time>2014-05-25T07:26:43Z</time>
      </trkpt>
      <trkpt lat="50.14327" lon="3.68716">
        <ele>176.54</ele>
        <time>2014-05-25T07:26:44Z</time>
      </trkpt>
      <trkpt lat="50.14325" lon="3.68723">
        <ele>176.06</ele>
        <time>2014-05-25T07:26:45Z</time>
      </trkpt>
      <trkpt lat="50.14324" lon="3.68729">
        <ele>176.06</ele>
        <time>2014-05-25T07:26:46Z</time>
      </trkpt>
      <trkpt lat="50.14321" lon="3.68734">
        <ele>176.06</ele>
        <time>2014-05-25T07:26:47Z</time>
      </trkpt>
      <trkpt lat="50.14319" lon="3.6875">
        <ele>176.06</ele>
        <time>2014-05-25T07:26:53Z</time>
      </trkpt>
      <trkpt lat="50.14318" lon="3.68754">
        <ele>176.06</ele>
        <time>2014-05-25T07:26:54Z</time>
      </trkpt>
      <trkpt lat="50.14318" lon="3.68758">
        <ele>176.06</ele>
        <time>2014-05-25T07:26:55Z</time>
      </trkpt>
      <trkpt lat="50.14319" lon="3.68763">
        <ele>176.06</ele>
        <time>2014-05-25T07:26:56Z</time>
      </trkpt>
      <trkpt lat="50.1432" lon="3.68767">
        <ele>176.06</ele>
        <time>2014-05-25T07:26:57Z</time>
      </trkpt>
      <trkpt lat="50.14321" lon="3.68773">
        <ele>176.06</ele>
        <time>2014-05-25T07:26:58Z</time>
      </trkpt>
      <trkpt lat="50.14322" lon="3.68778">
        <ele>176.06</ele>
        <time>2014-05-25T07:26:59Z</time>
      </trkpt>
      <trkpt lat="50.14327" lon="3.68831">
        <ele>178.94</ele>
        <time>2014-05-25T07:27:08Z</time>
      </trkpt>
      <trkpt lat="50.1431" lon="3.68899">
        <ele>181.35</ele>
        <time>2014-05-25T07:27:19Z</time>
      </trkpt>
      <trkpt lat="50.14306" lon="3.68951">
        <ele>181.83</ele>
        <time>2014-05-25T07:27:27Z</time>
      </trkpt>
      <trkpt lat="50.14298" lon="3.68989">
        <ele>182.79</ele>
        <time>2014-05-25T07:27:36Z</time>
      </trkpt>
      <trkpt lat="50.14293" lon="3.69048">
        <ele>182.79</ele>
        <time>2014-05-25T07:27:48Z</time>
      </trkpt>
      <trkpt lat="50.14289" lon="3.69068">
        <ele>181.35</ele>
        <time>2014-05-25T07:27:52Z</time>
      </trkpt>
      <trkpt lat="50.14277" lon="3.69133">
        <ele>179.9</ele>
        <time>2014-05-25T07:28:02Z</time>
      </trkpt>
      <trkpt lat="50.1427" lon="3.69147">
        <ele>178.94</ele>
        <time>2014-05-25T07:28:04Z</time>
      </trkpt>
      <trkpt lat="50.1426" lon="3.69173">
        <ele>178.94</ele>
        <time>2014-05-25T07:28:07Z</time>
      </trkpt>
      <trkpt lat="50.14258" lon="3.69181">
        <ele>178.94</ele>
        <time>2014-05-25T07:28:08Z</time>
      </trkpt>
      <trkpt lat="50.14257" lon="3.69188">
        <ele>178.94</ele>
        <time>2014-05-25T07:28:09Z</time>
      </trkpt>
      <trkpt lat="50.14256" lon="3.69194">
        <ele>178.94</ele>
        <time>2014-05-25T07:28:10Z</time>
      </trkpt>
      <trkpt lat="50.14254" lon="3.69198">
        <ele>178.94</ele>
        <time>2014-05-25T07:28:11Z</time>
      </trkpt>
      <trkpt lat="50.14252" lon="3.69202">
        <ele>178.94</ele>
        <time>2014-05-25T07:28:12Z</time>
      </trkpt>
      <trkpt lat="50.14249" lon="3.69207">
        <ele>178.94</ele>
        <time>2014-05-25T07:28:13Z</time>
      </trkpt>
      <trkpt lat="50.14245" lon="3.69214">
        <ele>178.46</ele>
        <time>2014-05-25T07:28:14Z</time>
      </trkpt>
      <trkpt lat="50.14244" lon="3.69221">
        <ele>178.46</ele>
        <time>2014-05-25T07:28:15Z</time>
      </trkpt>
      <trkpt lat="50.14243" lon="3.6923">
        <ele>177.98</ele>
        <time>2014-05-25T07:28:16Z</time>
      </trkpt>
      <trkpt lat="50.14241" lon="3.69239">
        <ele>177.5</ele>
        <time>2014-05-25T07:28:17Z</time>
      </trkpt>
      <trkpt lat="50.1424" lon="3.69247">
        <ele>177.98</ele>
        <time>2014-05-25T07:28:18Z</time>
      </trkpt>
      <trkpt lat="50.14238" lon="3.69257">
        <ele>177.5</ele>
        <time>2014-05-25T07:28:19Z</time>
      </trkpt>
      <trkpt lat="50.14237" lon="3.69267">
        <ele>177.5</ele>
        <time>2014-05-25T07:28:20Z</time>
      </trkpt>
      <trkpt lat="50.14232" lon="3.69296">
        <ele>178.46</ele>
        <time>2014-05-25T07:28:23Z</time>
      </trkpt>
      <trkpt lat="50.14231" lon="3.69305">
        <ele>178.46</ele>
        <time>2014-05-25T07:28:24Z</time>
      </trkpt>
      <trkpt lat="50.14228" lon="3.69378">
        <ele>179.42</ele>
        <time>2014-05-25T07:28:34Z</time>
      </trkpt>
      <trkpt lat="50.14225" lon="3.69414">
        <ele>180.38</ele>
        <time>2014-05-25T07:28:39Z</time>
      </trkpt>
      <trkpt lat="50.14222" lon="3.69457">
        <ele>180.38</ele>
        <time>2014-05-25T07:28:45Z</time>
      </trkpt>
      <trkpt lat="50.14215" lon="3.69472">
        <ele>180.38</ele>
        <time>2014-05-25T07:28:54Z</time>
      </trkpt>
      <trkpt lat="50.14212" lon="3.69478">
        <ele>180.87</ele>
        <time>2014-05-25T07:28:59Z</time>
      </trkpt>
      <trkpt lat="50.14212" lon="3.69483">
        <ele>180.87</ele>
        <time>2014-05-25T07:29:01Z</time>
      </trkpt>
      <trkpt lat="50.14212" lon="3.69486">
        <ele>180.87</ele>
        <time>2014-05-25T07:29:02Z</time>
      </trkpt>
      <trkpt lat="50.14212" lon="3.69489">
        <ele>180.87</ele>
        <time>2014-05-25T07:29:03Z</time>
      </trkpt>
      <trkpt lat="50.14211" lon="3.69492">
        <ele>180.87</ele>
        <time>2014-05-25T07:29:04Z</time>
      </trkpt>
      <trkpt lat="50.14211" lon="3.69495">
        <ele>180.87</ele>
        <time>2014-05-25T07:29:05Z</time>
      </trkpt>
      <trkpt lat="50.1421" lon="3.69499">
        <ele>180.87</ele>
        <time>2014-05-25T07:29:06Z</time>
      </trkpt>
      <trkpt lat="50.1421" lon="3.69505">
        <ele>180.87</ele>
        <time>2014-05-25T07:29:07Z</time>
      </trkpt>
      <trkpt lat="50.14211" lon="3.69511">
        <ele>180.87</ele>
        <time>2014-05-25T07:29:08Z</time>
      </trkpt>
      <trkpt lat="50.14211" lon="3.69517">
        <ele>180.87</ele>
        <time>2014-05-25T07:29:09Z</time>
      </trkpt>
      <trkpt lat="50.1422" lon="3.69589">
        <ele>180.87</ele>
        <time>2014-05-25T07:29:21Z</time>
      </trkpt>
      <trkpt lat="50.1422" lon="3.69595">
        <ele>180.87</ele>
        <time>2014-05-25T07:29:22Z</time>
      </trkpt>
      <trkpt lat="50.14222" lon="3.69601">
        <ele>180.87</ele>
        <time>2014-05-25T07:29:23Z</time>
      </trkpt>
      <trkpt lat="50.14223" lon="3.69607">
        <ele>180.87</ele>
        <time>2014-05-25T07:29:24Z</time>
      </trkpt>
      <trkpt lat="50.14224" lon="3.69614">
        <ele>180.87</ele>
        <time>2014-05-25T07:29:25Z</time>
      </trkpt>
      <trkpt lat="50.14225" lon="3.69621">
        <ele>180.87</ele>
        <time>2014-05-25T07:29:26Z</time>
      </trkpt>
      <trkpt lat="50.14241" lon="3.69666">
        <ele>181.83</ele>
        <time>2014-05-25T07:29:35Z</time>
      </trkpt>
      <trkpt lat="50.14242" lon="3.69678">
        <ele>181.83</ele>
        <time>2014-05-25T07:29:37Z</time>
      </trkpt>
      <trkpt lat="50.14246" lon="3.69708">
        <ele>181.83</ele>
        <time>2014-05-25T07:29:41Z</time>
      </trkpt>
      <trkpt lat="50.14247" lon="3.69714">
        <ele>181.83</ele>
        <time>2014-05-25T07:29:42Z</time>
      </trkpt>
      <trkpt lat="50.14249" lon="3.69735">
        <ele>181.83</ele>
        <time>2014-05-25T07:29:45Z</time>
      </trkpt>
      <trkpt lat="50.14253" lon="3.69763">
        <ele>180.38</ele>
        <time>2014-05-25T07:29:49Z</time>
      </trkpt>
      <trkpt lat="50.14255" lon="3.69779">
        <ele>179.9</ele>
        <time>2014-05-25T07:29:51Z</time>
      </trkpt>
      <trkpt lat="50.14258" lon="3.69813">
        <ele>178.94</ele>
        <time>2014-05-25T07:29:55Z</time>
      </trkpt>
      <trkpt lat="50.14259" lon="3.69833">
        <ele>177.98</ele>
        <time>2014-05-25T07:29:57Z</time>
      </trkpt>
      <trkpt lat="50.1426" lon="3.69844">
        <ele>177.5</ele>
        <time>2014-05-25T07:29:58Z</time>
      </trkpt>
      <trkpt lat="50.14265" lon="3.69887">
        <ele>175.58</ele>
        <time>2014-05-25T07:30:02Z</time>
      </trkpt>
      <trkpt lat="50.14265" lon="3.69898">
        <ele>175.1</ele>
        <time>2014-05-25T07:30:03Z</time>
      </trkpt>
      <trkpt lat="50.14265" lon="3.6991">
        <ele>174.14</ele>
        <time>2014-05-25T07:30:04Z</time>
      </trkpt>
      <trkpt lat="50.14265" lon="3.69921">
        <ele>174.14</ele>
        <time>2014-05-25T07:30:05Z</time>
      </trkpt>
      <trkpt lat="50.14265" lon="3.69932">
        <ele>173.17</ele>
        <time>2014-05-25T07:30:06Z</time>
      </trkpt>
      <trkpt lat="50.14268" lon="3.69973">
        <ele>171.73</ele>
        <time>2014-05-25T07:30:10Z</time>
      </trkpt>
      <trkpt lat="50.14268" lon="3.69993">
        <ele>170.77</ele>
        <time>2014-05-25T07:30:12Z</time>
      </trkpt>
      <trkpt lat="50.14266" lon="3.70001">
        <ele>170.77</ele>
        <time>2014-05-25T07:30:13Z</time>
      </trkpt>
      <trkpt lat="50.14263" lon="3.70009">
        <ele>170.77</ele>
        <time>2014-05-25T07:30:14Z</time>
      </trkpt>
      <trkpt lat="50.14259" lon="3.70015">
        <ele>170.77</ele>
        <time>2014-05-25T07:30:15Z</time>
      </trkpt>
      <trkpt lat="50.14254" lon="3.70024">
        <ele>170.77</ele>
        <time>2014-05-25T07:30:16Z</time>
      </trkpt>
      <trkpt lat="50.14247" lon="3.70037">
        <ele>169.81</ele>
        <time>2014-05-25T07:30:18Z</time>
      </trkpt>
      <trkpt lat="50.14236" lon="3.7006">
        <ele>169.81</ele>
        <time>2014-05-25T07:30:21Z</time>
      </trkpt>
      <trkpt lat="50.14228" lon="3.70075">
        <ele>169.33</ele>
        <time>2014-05-25T07:30:23Z</time>
      </trkpt>
      <trkpt lat="50.14222" lon="3.70088">
        <ele>169.81</ele>
        <time>2014-05-25T07:30:25Z</time>
      </trkpt>
      <trkpt lat="50.14221" lon="3.70095">
        <ele>169.81</ele>
        <time>2014-05-25T07:30:26Z</time>
      </trkpt>
      <trkpt lat="50.14219" lon="3.70102">
        <ele>169.81</ele>
        <time>2014-05-25T07:30:27Z</time>
      </trkpt>
      <trkpt lat="50.14218" lon="3.70108">
        <ele>169.81</ele>
        <time>2014-05-25T07:30:28Z</time>
      </trkpt>
      <trkpt lat="50.14216" lon="3.70114">
        <ele>169.81</ele>
        <time>2014-05-25T07:30:29Z</time>
      </trkpt>
      <trkpt lat="50.14215" lon="3.7012">
        <ele>169.81</ele>
        <time>2014-05-25T07:30:30Z</time>
      </trkpt>
      <trkpt lat="50.14213" lon="3.70125">
        <ele>169.81</ele>
        <time>2014-05-25T07:30:31Z</time>
      </trkpt>
      <trkpt lat="50.14211" lon="3.70129">
        <ele>169.81</ele>
        <time>2014-05-25T07:30:32Z</time>
      </trkpt>
      <trkpt lat="50.1421" lon="3.70133">
        <ele>169.81</ele>
        <time>2014-05-25T07:30:33Z</time>
      </trkpt>
      <trkpt lat="50.14208" lon="3.70136">
        <ele>169.81</ele>
        <time>2014-05-25T07:30:34Z</time>
      </trkpt>
      <trkpt lat="50.14192" lon="3.70156">
        <ele>169.33</ele>
        <time>2014-05-25T07:30:39Z</time>
      </trkpt>
      <trkpt lat="50.14186" lon="3.70159">
        <ele>169.33</ele>
        <time>2014-05-25T07:30:40Z</time>
      </trkpt>
      <trkpt lat="50.14182" lon="3.70164">
        <ele>169.33</ele>
        <time>2014-05-25T07:30:41Z</time>
      </trkpt>
      <trkpt lat="50.14177" lon="3.70169">
        <ele>168.85</ele>
        <time>2014-05-25T07:30:42Z</time>
      </trkpt>
      <trkpt lat="50.14169" lon="3.70176">
        <ele>168.37</ele>
        <time>2014-05-25T07:30:44Z</time>
      </trkpt>
      <trkpt lat="50.14155" lon="3.70194">
        <ele>167.41</ele>
        <time>2014-05-25T07:30:47Z</time>
      </trkpt>
      <trkpt lat="50.14149" lon="3.70207">
        <ele>167.41</ele>
        <time>2014-05-25T07:30:49Z</time>
      </trkpt>
      <trkpt lat="50.14135" lon="3.70233">
        <ele>165.96</ele>
        <time>2014-05-25T07:30:53Z</time>
      </trkpt>
      <trkpt lat="50.14122" lon="3.70264">
        <ele>165.48</ele>
        <time>2014-05-25T07:30:58Z</time>
      </trkpt>
      <trkpt lat="50.14109" lon="3.70291">
        <ele>164.52</ele>
        <time>2014-05-25T07:31:02Z</time>
      </trkpt>
      <trkpt lat="50.14074" lon="3.70332">
        <ele>162.6</ele>
        <time>2014-05-25T07:31:09Z</time>
      </trkpt>
      <trkpt lat="50.14058" lon="3.70353">
        <ele>162.12</ele>
        <time>2014-05-25T07:31:13Z</time>
      </trkpt>
      <trkpt lat="50.14051" lon="3.7036">
        <ele>161.64</ele>
        <time>2014-05-25T07:31:15Z</time>
      </trkpt>
      <trkpt lat="50.14038" lon="3.70381">
        <ele>161.16</ele>
        <time>2014-05-25T07:31:19Z</time>
      </trkpt>
      <trkpt lat="50.14026" lon="3.70421">
        <ele>160.2</ele>
        <time>2014-05-25T07:31:26Z</time>
      </trkpt>
      <trkpt lat="50.14016" lon="3.70476">
        <ele>159.72</ele>
        <time>2014-05-25T07:31:34Z</time>
      </trkpt>
      <trkpt lat="50.14006" lon="3.70503">
        <ele>158.27</ele>
        <time>2014-05-25T07:31:38Z</time>
      </trkpt>
      <trkpt lat="50.13984" lon="3.70557">
        <ele>156.83</ele>
        <time>2014-05-25T07:31:46Z</time>
      </trkpt>
      <trkpt lat="50.13971" lon="3.70605">
        <ele>155.87</ele>
        <time>2014-05-25T07:31:56Z</time>
      </trkpt>
      <trkpt lat="50.1396" lon="3.70646">
        <ele>154.91</ele>
        <time>2014-05-25T07:32:06Z</time>
      </trkpt>
      <trkpt lat="50.13952" lon="3.70668">
        <ele>153.95</ele>
        <time>2014-05-25T07:32:10Z</time>
      </trkpt>
      <trkpt lat="50.13952" lon="3.707">
        <ele>153.47</ele>
        <time>2014-05-25T07:32:14Z</time>
      </trkpt>
      <trkpt lat="50.13952" lon="3.70715">
        <ele>152.99</ele>
        <time>2014-05-25T07:32:16Z</time>
      </trkpt>
      <trkpt lat="50.13949" lon="3.70728">
        <ele>152.99</ele>
        <time>2014-05-25T07:32:18Z</time>
      </trkpt>
      <trkpt lat="50.13956" lon="3.70746">
        <ele>152.99</ele>
        <time>2014-05-25T07:32:21Z</time>
      </trkpt>
      <trkpt lat="50.13959" lon="3.70751">
        <ele>152.99</ele>
        <time>2014-05-25T07:32:22Z</time>
      </trkpt>
      <trkpt lat="50.13962" lon="3.70756">
        <ele>152.99</ele>
        <time>2014-05-25T07:32:23Z</time>
      </trkpt>
      <trkpt lat="50.13969" lon="3.70766">
        <ele>152.51</ele>
        <time>2014-05-25T07:32:25Z</time>
      </trkpt>
      <trkpt lat="50.1398" lon="3.70786">
        <ele>152.51</ele>
        <time>2014-05-25T07:32:29Z</time>
      </trkpt>
      <trkpt lat="50.13983" lon="3.70791">
        <ele>152.51</ele>
        <time>2014-05-25T07:32:30Z</time>
      </trkpt>
      <trkpt lat="50.14014" lon="3.70834">
        <ele>152.03</ele>
        <time>2014-05-25T07:32:39Z</time>
      </trkpt>
      <trkpt lat="50.14019" lon="3.70841">
        <ele>152.03</ele>
        <time>2014-05-25T07:32:40Z</time>
      </trkpt>
      <trkpt lat="50.14045" lon="3.70881">
        <ele>151.54</ele>
        <time>2014-05-25T07:32:46Z</time>
      </trkpt>
      <trkpt lat="50.14048" lon="3.70886">
        <ele>151.54</ele>
        <time>2014-05-25T07:32:47Z</time>
      </trkpt>
      <trkpt lat="50.14051" lon="3.70892">
        <ele>151.54</ele>
        <time>2014-05-25T07:32:48Z</time>
      </trkpt>
      <trkpt lat="50.14054" lon="3.70897">
        <ele>151.06</ele>
        <time>2014-05-25T07:32:49Z</time>
      </trkpt>
      <trkpt lat="50.14057" lon="3.70901">
        <ele>151.06</ele>
        <time>2014-05-25T07:32:50Z</time>
      </trkpt>
      <trkpt lat="50.1406" lon="3.70905">
        <ele>151.06</ele>
        <time>2014-05-25T07:32:51Z</time>
      </trkpt>
      <trkpt lat="50.14091" lon="3.70948">
        <ele>150.1</ele>
        <time>2014-05-25T07:33:00Z</time>
      </trkpt>
      <trkpt lat="50.14094" lon="3.70953">
        <ele>150.1</ele>
        <time>2014-05-25T07:33:01Z</time>
      </trkpt>
      <trkpt lat="50.14096" lon="3.70957">
        <ele>150.1</ele>
        <time>2014-05-25T07:33:02Z</time>
      </trkpt>
      <trkpt lat="50.14099" lon="3.70961">
        <ele>150.1</ele>
        <time>2014-05-25T07:33:03Z</time>
      </trkpt>
      <trkpt lat="50.14101" lon="3.70965">
        <ele>150.1</ele>
        <time>2014-05-25T07:33:04Z</time>
      </trkpt>
      <trkpt lat="50.14103" lon="3.70969">
        <ele>150.1</ele>
        <time>2014-05-25T07:33:05Z</time>
      </trkpt>
      <trkpt lat="50.14121" lon="3.70977">
        <ele>151.54</ele>
        <time>2014-05-25T07:33:12Z</time>
      </trkpt>
      <trkpt lat="50.14156" lon="3.7097">
        <ele>153.47</ele>
        <time>2014-05-25T07:33:23Z</time>
      </trkpt>
      <trkpt lat="50.14178" lon="3.70976">
        <ele>154.91</ele>
        <time>2014-05-25T07:33:32Z</time>
      </trkpt>
      <trkpt lat="50.1418" lon="3.70976">
        <ele>154.91</ele>
        <time>2014-05-25T07:33:33Z</time>
      </trkpt>
      <trkpt lat="50.14182" lon="3.70976">
        <ele>154.91</ele>
        <time>2014-05-25T07:33:34Z</time>
      </trkpt>
      <trkpt lat="50.14185" lon="3.70978">
        <ele>155.39</ele>
        <time>2014-05-25T07:33:35Z</time>
      </trkpt>
      <trkpt lat="50.14187" lon="3.70979">
        <ele>155.39</ele>
        <time>2014-05-25T07:33:36Z</time>
      </trkpt>
      <trkpt lat="50.1419" lon="3.7098">
        <ele>155.87</ele>
        <time>2014-05-25T07:33:37Z</time>
      </trkpt>
      <trkpt lat="50.14193" lon="3.70979">
        <ele>155.87</ele>
        <time>2014-05-25T07:33:38Z</time>
      </trkpt>
      <trkpt lat="50.14195" lon="3.70978">
        <ele>155.87</ele>
        <time>2014-05-25T07:33:39Z</time>
      </trkpt>
      <trkpt lat="50.14198" lon="3.70978">
        <ele>155.87</ele>
        <time>2014-05-25T07:33:40Z</time>
      </trkpt>
      <trkpt lat="50.142" lon="3.70979">
        <ele>155.87</ele>
        <time>2014-05-25T07:33:41Z</time>
      </trkpt>
      <trkpt lat="50.14224" lon="3.70983">
        <ele>156.35</ele>
        <time>2014-05-25T07:33:54Z</time>
      </trkpt>
      <trkpt lat="50.14242" lon="3.70982">
        <ele>156.35</ele>
        <time>2014-05-25T07:34:04Z</time>
      </trkpt>
      <trkpt lat="50.14244" lon="3.70982">
        <ele>156.35</ele>
        <time>2014-05-25T07:34:05Z</time>
      </trkpt>
      <trkpt lat="50.14246" lon="3.70982">
        <ele>156.35</ele>
        <time>2014-05-25T07:34:06Z</time>
      </trkpt>
      <trkpt lat="50.14248" lon="3.70982">
        <ele>156.35</ele>
        <time>2014-05-25T07:34:07Z</time>
      </trkpt>
      <trkpt lat="50.14256" lon="3.70978">
        <ele>156.35</ele>
        <time>2014-05-25T07:34:20Z</time>
      </trkpt>
      <trkpt lat="50.14264" lon="3.70978">
        <ele>156.35</ele>
        <time>2014-05-25T07:34:39Z</time>
      </trkpt>
      <trkpt lat="50.14286" lon="3.70986">
        <ele>156.83</ele>
        <time>2014-05-25T07:34:52Z</time>
      </trkpt>
      <trkpt lat="50.14302" lon="3.70991">
        <ele>157.31</ele>
        <time>2014-05-25T07:35:03Z</time>
      </trkpt>
      <trkpt lat="50.14305" lon="3.70995">
        <ele>157.31</ele>
        <time>2014-05-25T07:35:05Z</time>
      </trkpt>
      <trkpt lat="50.14319" lon="3.71002">
        <ele>157.31</ele>
        <time>2014-05-25T07:35:15Z</time>
      </trkpt>
      <trkpt lat="50.14327" lon="3.71003">
        <ele>155.87</ele>
        <time>2014-05-25T07:35:19Z</time>
      </trkpt>
      <trkpt lat="50.14328" lon="3.71003">
        <ele>155.87</ele>
        <time>2014-05-25T07:35:20Z</time>
      </trkpt>
      <trkpt lat="50.1433" lon="3.71004">
        <ele>155.87</ele>
        <time>2014-05-25T07:35:21Z</time>
      </trkpt>
      <trkpt lat="50.14341" lon="3.71008">
        <ele>154.91</ele>
        <time>2014-05-25T07:35:33Z</time>
      </trkpt>
      <trkpt lat="50.14352" lon="3.71014">
        <ele>155.87</ele>
        <time>2014-05-25T07:35:53Z</time>
      </trkpt>
      <trkpt lat="50.14354" lon="3.71016">
        <ele>155.87</ele>
        <time>2014-05-25T07:36:13Z</time>
      </trkpt>
      <trkpt lat="50.14356" lon="3.71016">
        <ele>155.87</ele>
        <time>2014-05-25T07:36:17Z</time>
      </trkpt>
      <trkpt lat="50.14357" lon="3.71015">
        <ele>155.87</ele>
        <time>2014-05-25T07:36:18Z</time>
      </trkpt>
      <trkpt lat="50.1437" lon="3.71014">
        <ele>155.87</ele>
        <time>2014-05-25T07:36:29Z</time>
      </trkpt>
      <trkpt lat="50.14371" lon="3.71013">
        <ele>155.87</ele>
        <time>2014-05-25T07:36:30Z</time>
      </trkpt>
      <trkpt lat="50.14373" lon="3.71014">
        <ele>154.91</ele>
        <time>2014-05-25T07:36:31Z</time>
      </trkpt>
      <trkpt lat="50.14374" lon="3.71014">
        <ele>154.91</ele>
        <time>2014-05-25T07:36:32Z</time>
      </trkpt>
      <trkpt lat="50.14377" lon="3.71015">
        <ele>154.43</ele>
        <time>2014-05-25T07:36:34Z</time>
      </trkpt>
      <trkpt lat="50.14378" lon="3.71016">
        <ele>154.43</ele>
        <time>2014-05-25T07:36:35Z</time>
      </trkpt>
      <trkpt lat="50.1438" lon="3.71016">
        <ele>154.91</ele>
        <time>2014-05-25T07:36:36Z</time>
      </trkpt>
      <trkpt lat="50.14381" lon="3.71017">
        <ele>153.95</ele>
        <time>2014-05-25T07:36:37Z</time>
      </trkpt>
      <trkpt lat="50.14383" lon="3.71018">
        <ele>153.47</ele>
        <time>2014-05-25T07:36:38Z</time>
      </trkpt>
      <trkpt lat="50.14385" lon="3.71019">
        <ele>153.47</ele>
        <time>2014-05-25T07:36:39Z</time>
      </trkpt>
      <trkpt lat="50.14386" lon="3.71019">
        <ele>152.99</ele>
        <time>2014-05-25T07:36:40Z</time>
      </trkpt>
      <trkpt lat="50.14388" lon="3.71024">
        <ele>152.99</ele>
        <time>2014-05-25T07:36:45Z</time>
      </trkpt>
      <trkpt lat="50.14396" lon="3.71028">
        <ele>152.51</ele>
        <time>2014-05-25T07:36:59Z</time>
      </trkpt>
      <trkpt lat="50.14397" lon="3.71031">
        <ele>152.51</ele>
        <time>2014-05-25T07:37:20Z</time>
      </trkpt>
      <trkpt lat="50.14403" lon="3.71032">
        <ele>152.51</ele>
        <time>2014-05-25T07:37:27Z</time>
      </trkpt>
      <trkpt lat="50.14405" lon="3.71033">
        <ele>152.03</ele>
        <time>2014-05-25T07:37:28Z</time>
      </trkpt>
      <trkpt lat="50.14412" lon="3.71038">
        <ele>152.99</ele>
        <time>2014-05-25T07:37:38Z</time>
      </trkpt>
      <trkpt lat="50.14417" lon="3.71038">
        <ele>153.47</ele>
        <time>2014-05-25T07:37:51Z</time>
      </trkpt>
      <trkpt lat="50.1442" lon="3.71033">
        <ele>153.47</ele>
        <time>2014-05-25T07:38:04Z</time>
      </trkpt>
      <trkpt lat="50.14422" lon="3.7103">
        <ele>154.43</ele>
        <time>2014-05-25T07:38:22Z</time>
      </trkpt>
      <trkpt lat="50.1442" lon="3.71028">
        <ele>154.43</ele>
        <time>2014-05-25T07:38:50Z</time>
      </trkpt>
      <trkpt lat="50.14424" lon="3.71031">
        <ele>154.43</ele>
        <time>2014-05-25T07:38:57Z</time>
      </trkpt>
      <trkpt lat="50.1444" lon="3.71029">
        <ele>155.87</ele>
        <time>2014-05-25T07:39:10Z</time>
      </trkpt>
      <trkpt lat="50.14448" lon="3.71033">
        <ele>156.83</ele>
        <time>2014-05-25T07:39:18Z</time>
      </trkpt>
      <trkpt lat="50.14466" lon="3.71032">
        <ele>158.75</ele>
        <time>2014-05-25T07:39:33Z</time>
      </trkpt>
      <trkpt lat="50.14481" lon="3.71036">
        <ele>160.2</ele>
        <time>2014-05-25T07:39:48Z</time>
      </trkpt>
      <trkpt lat="50.14496" lon="3.71043">
        <ele>161.16</ele>
        <time>2014-05-25T07:40:00Z</time>
      </trkpt>
      <trkpt lat="50.14503" lon="3.71044">
        <ele>161.64</ele>
        <time>2014-05-25T07:40:06Z</time>
      </trkpt>
      <trkpt lat="50.14504" lon="3.71044">
        <ele>161.64</ele>
        <time>2014-05-25T07:40:20Z</time>
      </trkpt>
      <trkpt lat="50.14509" lon="3.71043">
        <ele>162.12</ele>
        <time>2014-05-25T07:40:40Z</time>
      </trkpt>
      <trkpt lat="50.14508" lon="3.71042">
        <ele>162.12</ele>
        <time>2014-05-25T07:41:00Z</time>
      </trkpt>
      <trkpt lat="50.1451" lon="3.71043">
        <ele>162.12</ele>
        <time>2014-05-25T07:41:04Z</time>
      </trkpt>
      <trkpt lat="50.14511" lon="3.71044">
        <ele>162.12</ele>
        <time>2014-05-25T07:41:05Z</time>
      </trkpt>
      <trkpt lat="50.14517" lon="3.71044">
        <ele>162.6</ele>
        <time>2014-05-25T07:41:11Z</time>
      </trkpt>
      <trkpt lat="50.14524" lon="3.71046">
        <ele>162.6</ele>
        <time>2014-05-25T07:41:15Z</time>
      </trkpt>
      <trkpt lat="50.14545" lon="3.71053">
        <ele>163.08</ele>
        <time>2014-05-25T07:41:28Z</time>
      </trkpt>
      <trkpt lat="50.14558" lon="3.71055">
        <ele>163.56</ele>
        <time>2014-05-25T07:41:40Z</time>
      </trkpt>
      <trkpt lat="50.1456" lon="3.71056">
        <ele>163.56</ele>
        <time>2014-05-25T07:41:41Z</time>
      </trkpt>
      <trkpt lat="50.14562" lon="3.71057">
        <ele>163.56</ele>
        <time>2014-05-25T07:41:42Z</time>
      </trkpt>
      <trkpt lat="50.14564" lon="3.71056">
        <ele>163.56</ele>
        <time>2014-05-25T07:41:43Z</time>
      </trkpt>
      <trkpt lat="50.14566" lon="3.71056">
        <ele>163.56</ele>
        <time>2014-05-25T07:41:44Z</time>
      </trkpt>
      <trkpt lat="50.14582" lon="3.71059">
        <ele>163.56</ele>
        <time>2014-05-25T07:41:54Z</time>
      </trkpt>
      <trkpt lat="50.14584" lon="3.7106">
        <ele>163.56</ele>
        <time>2014-05-25T07:41:55Z</time>
      </trkpt>
      <trkpt lat="50.14598" lon="3.71062">
        <ele>164.04</ele>
        <time>2014-05-25T07:42:01Z</time>
      </trkpt>
      <trkpt lat="50.146" lon="3.71062">
        <ele>164.04</ele>
        <time>2014-05-25T07:42:02Z</time>
      </trkpt>
      <trkpt lat="50.14603" lon="3.71062">
        <ele>164.04</ele>
        <time>2014-05-25T07:42:03Z</time>
      </trkpt>
      <trkpt lat="50.14605" lon="3.71062">
        <ele>164.04</ele>
        <time>2014-05-25T07:42:04Z</time>
      </trkpt>
      <trkpt lat="50.14607" lon="3.71061">
        <ele>164.04</ele>
        <time>2014-05-25T07:42:05Z</time>
      </trkpt>
      <trkpt lat="50.14611" lon="3.71061">
        <ele>164.04</ele>
        <time>2014-05-25T07:42:09Z</time>
      </trkpt>
      <trkpt lat="50.14614" lon="3.71064">
        <ele>164.04</ele>
        <time>2014-05-25T07:42:10Z</time>
      </trkpt>
      <trkpt lat="50.14616" lon="3.71066">
        <ele>164.04</ele>
        <time>2014-05-25T07:42:11Z</time>
      </trkpt>
      <trkpt lat="50.14626" lon="3.71076">
        <ele>164.04</ele>
        <time>2014-05-25T07:42:24Z</time>
      </trkpt>
      <trkpt lat="50.14633" lon="3.71083">
        <ele>164.04</ele>
        <time>2014-05-25T07:42:39Z</time>
      </trkpt>
      <trkpt lat="50.14635" lon="3.71084">
        <ele>164.04</ele>
        <time>2014-05-25T07:42:40Z</time>
      </trkpt>
      <trkpt lat="50.14637" lon="3.71086">
        <ele>164.04</ele>
        <time>2014-05-25T07:42:41Z</time>
      </trkpt>
      <trkpt lat="50.14638" lon="3.71087">
        <ele>164.04</ele>
        <time>2014-05-25T07:42:42Z</time>
      </trkpt>
      <trkpt lat="50.1464" lon="3.71089">
        <ele>164.04</ele>
        <time>2014-05-25T07:42:43Z</time>
      </trkpt>
      <trkpt lat="50.14641" lon="3.71091">
        <ele>164.04</ele>
        <time>2014-05-25T07:42:44Z</time>
      </trkpt>
      <trkpt lat="50.14642" lon="3.71093">
        <ele>164.04</ele>
        <time>2014-05-25T07:42:45Z</time>
      </trkpt>
      <trkpt lat="50.14643" lon="3.71095">
        <ele>164.04</ele>
        <time>2014-05-25T07:42:46Z</time>
      </trkpt>
      <trkpt lat="50.14644" lon="3.71098">
        <ele>164.04</ele>
        <time>2014-05-25T07:42:47Z</time>
      </trkpt>
      <trkpt lat="50.14644" lon="3.71101">
        <ele>164.04</ele>
        <time>2014-05-25T07:42:48Z</time>
      </trkpt>
      <trkpt lat="50.14645" lon="3.71104">
        <ele>164.04</ele>
        <time>2014-05-25T07:42:49Z</time>
      </trkpt>
      <trkpt lat="50.14677" lon="3.71163">
        <ele>162.6</ele>
        <time>2014-05-25T07:43:02Z</time>
      </trkpt>
      <trkpt lat="50.14688" lon="3.71186">
        <ele>162.12</ele>
        <time>2014-05-25T07:43:06Z</time>
      </trkpt>
      <trkpt lat="50.1474" lon="3.7129">
        <ele>160.68</ele>
        <time>2014-05-25T07:43:21Z</time>
      </trkpt>
      <trkpt lat="50.14782" lon="3.71375">
        <ele>157.31</ele>
        <time>2014-05-25T07:43:32Z</time>
      </trkpt>
      <trkpt lat="50.14828" lon="3.71475">
        <ele>158.75</ele>
        <time>2014-05-25T07:43:45Z</time>
      </trkpt>
      <trkpt lat="50.14854" lon="3.71532">
        <ele>159.72</ele>
        <time>2014-05-25T07:43:53Z</time>
      </trkpt>
      <trkpt lat="50.14879" lon="3.71584">
        <ele>159.72</ele>
        <time>2014-05-25T07:44:04Z</time>
      </trkpt>
      <trkpt lat="50.14896" lon="3.71618">
        <ele>160.2</ele>
        <time>2014-05-25T07:44:11Z</time>
      </trkpt>
      <trkpt lat="50.14931" lon="3.71694">
        <ele>160.2</ele>
        <time>2014-05-25T07:44:24Z</time>
      </trkpt>
      <trkpt lat="50.14934" lon="3.717">
        <ele>160.2</ele>
        <time>2014-05-25T07:44:25Z</time>
      </trkpt>
      <trkpt lat="50.14946" lon="3.71724">
        <ele>160.2</ele>
        <time>2014-05-25T07:44:29Z</time>
      </trkpt>
      <trkpt lat="50.14949" lon="3.7173">
        <ele>160.2</ele>
        <time>2014-05-25T07:44:30Z</time>
      </trkpt>
      <trkpt lat="50.14962" lon="3.71755">
        <ele>158.75</ele>
        <time>2014-05-25T07:44:34Z</time>
      </trkpt>
      <trkpt lat="50.14965" lon="3.71761">
        <ele>158.75</ele>
        <time>2014-05-25T07:44:35Z</time>
      </trkpt>
      <trkpt lat="50.15008" lon="3.71851">
        <ele>157.31</ele>
        <time>2014-05-25T07:44:49Z</time>
      </trkpt>
      <trkpt lat="50.15047" lon="3.71934">
        <ele>155.87</ele>
        <time>2014-05-25T07:45:01Z</time>
      </trkpt>
      <trkpt lat="50.151" lon="3.72048">
        <ele>154.43</ele>
        <time>2014-05-25T07:45:17Z</time>
      </trkpt>
      <trkpt lat="50.1515" lon="3.72153">
        <ele>152.03</ele>
        <time>2014-05-25T07:45:31Z</time>
      </trkpt>
      <trkpt lat="50.15154" lon="3.7216">
        <ele>152.03</ele>
        <time>2014-05-25T07:45:32Z</time>
      </trkpt>
      <trkpt lat="50.15158" lon="3.72166">
        <ele>151.54</ele>
        <time>2014-05-25T07:45:33Z</time>
      </trkpt>
      <trkpt lat="50.15211" lon="3.72281">
        <ele>149.62</ele>
        <time>2014-05-25T07:45:48Z</time>
      </trkpt>
      <trkpt lat="50.15244" lon="3.72349">
        <ele>150.58</ele>
        <time>2014-05-25T07:45:58Z</time>
      </trkpt>
      <trkpt lat="50.15254" lon="3.72371">
        <ele>151.06</ele>
        <time>2014-05-25T07:46:02Z</time>
      </trkpt>
      <trkpt lat="50.15257" lon="3.72377">
        <ele>151.06</ele>
        <time>2014-05-25T07:46:03Z</time>
      </trkpt>
      <trkpt lat="50.1529" lon="3.72447">
        <ele>152.51</ele>
        <time>2014-05-25T07:46:14Z</time>
      </trkpt>
      <trkpt lat="50.15298" lon="3.72464">
        <ele>152.99</ele>
        <time>2014-05-25T07:46:17Z</time>
      </trkpt>
      <trkpt lat="50.15301" lon="3.72469">
        <ele>152.99</ele>
        <time>2014-05-25T07:46:18Z</time>
      </trkpt>
      <trkpt lat="50.15303" lon="3.72473">
        <ele>152.99</ele>
        <time>2014-05-25T07:46:19Z</time>
      </trkpt>
      <trkpt lat="50.15306" lon="3.72475">
        <ele>153.47</ele>
        <time>2014-05-25T07:46:20Z</time>
      </trkpt>
      <trkpt lat="50.15309" lon="3.72476">
        <ele>153.47</ele>
        <time>2014-05-25T07:46:21Z</time>
      </trkpt>
      <trkpt lat="50.15312" lon="3.72474">
        <ele>153.47</ele>
        <time>2014-05-25T07:46:22Z</time>
      </trkpt>
      <trkpt lat="50.15314" lon="3.72471">
        <ele>153.47</ele>
        <time>2014-05-25T07:46:23Z</time>
      </trkpt>
      <trkpt lat="50.15316" lon="3.72468">
        <ele>153.47</ele>
        <time>2014-05-25T07:46:24Z</time>
      </trkpt>
      <trkpt lat="50.15343" lon="3.7242">
        <ele>154.91</ele>
        <time>2014-05-25T07:46:37Z</time>
      </trkpt>
      <trkpt lat="50.15343" lon="3.72421">
        <ele>155.39</ele>
        <time>2014-05-25T07:46:47Z</time>
      </trkpt>
      <trkpt lat="50.15345" lon="3.7242">
        <ele>155.39</ele>
        <time>2014-05-25T07:46:50Z</time>
      </trkpt>
      <trkpt lat="50.15347" lon="3.72417">
        <ele>155.39</ele>
        <time>2014-05-25T07:46:52Z</time>
      </trkpt>
      <trkpt lat="50.15348" lon="3.72415">
        <ele>155.39</ele>
        <time>2014-05-25T07:46:53Z</time>
      </trkpt>
      <trkpt lat="50.15348" lon="3.72413">
        <ele>155.39</ele>
        <time>2014-05-25T07:46:54Z</time>
      </trkpt>
      <trkpt lat="50.15349" lon="3.72411">
        <ele>155.39</ele>
        <time>2014-05-25T07:46:55Z</time>
      </trkpt>
      <trkpt lat="50.1535" lon="3.72409">
        <ele>155.39</ele>
        <time>2014-05-25T07:46:56Z</time>
      </trkpt>
      <trkpt lat="50.15351" lon="3.72408">
        <ele>155.39</ele>
        <time>2014-05-25T07:46:57Z</time>
      </trkpt>
      <trkpt lat="50.15353" lon="3.72406">
        <ele>155.87</ele>
        <time>2014-05-25T07:47:06Z</time>
      </trkpt>
      <trkpt lat="50.15355" lon="3.72403">
        <ele>155.87</ele>
        <time>2014-05-25T07:47:12Z</time>
      </trkpt>
      <trkpt lat="50.15357" lon="3.724">
        <ele>155.87</ele>
        <time>2014-05-25T07:47:14Z</time>
      </trkpt>
      <trkpt lat="50.15357" lon="3.72399">
        <ele>155.87</ele>
        <time>2014-05-25T07:47:15Z</time>
      </trkpt>
      <trkpt lat="50.15375" lon="3.72368">
        <ele>156.35</ele>
        <time>2014-05-25T07:47:26Z</time>
      </trkpt>
      <trkpt lat="50.154" lon="3.72332">
        <ele>157.79</ele>
        <time>2014-05-25T07:47:39Z</time>
      </trkpt>
      <trkpt lat="50.15413" lon="3.7231">
        <ele>158.27</ele>
        <time>2014-05-25T07:47:52Z</time>
      </trkpt>
      <trkpt lat="50.15415" lon="3.72308">
        <ele>158.27</ele>
        <time>2014-05-25T07:48:11Z</time>
      </trkpt>
      <trkpt lat="50.15415" lon="3.72306">
        <ele>158.27</ele>
        <time>2014-05-25T07:48:12Z</time>
      </trkpt>
      <trkpt lat="50.15416" lon="3.72304">
        <ele>158.27</ele>
        <time>2014-05-25T07:48:13Z</time>
      </trkpt>
      <trkpt lat="50.15418" lon="3.72303">
        <ele>158.27</ele>
        <time>2014-05-25T07:48:14Z</time>
      </trkpt>
      <trkpt lat="50.15419" lon="3.72301">
        <ele>158.27</ele>
        <time>2014-05-25T07:48:15Z</time>
      </trkpt>
      <trkpt lat="50.15423" lon="3.72296">
        <ele>158.75</ele>
        <time>2014-05-25T07:48:29Z</time>
      </trkpt>
      <trkpt lat="50.15425" lon="3.72294">
        <ele>158.75</ele>
        <time>2014-05-25T07:48:36Z</time>
      </trkpt>
      <trkpt lat="50.15426" lon="3.72298">
        <ele>157.79</ele>
        <time>2014-05-25T07:48:55Z</time>
      </trkpt>
      <trkpt lat="50.15426" lon="3.72298">
        <ele>157.31</ele>
        <time>2014-05-25T07:49:33Z</time>
      </trkpt>
      <trkpt lat="50.15421" lon="3.7229">
        <ele>158.75</ele>
        <time>2014-05-25T07:50:02Z</time>
      </trkpt>
      <trkpt lat="50.15424" lon="3.72293">
        <ele>158.27</ele>
        <time>2014-05-25T07:50:26Z</time>
      </trkpt>
      <trkpt lat="50.15428" lon="3.72295">
        <ele>158.27</ele>
        <time>2014-05-25T07:50:43Z</time>
      </trkpt>
      <trkpt lat="50.15428" lon="3.72298">
        <ele>158.27</ele>
        <time>2014-05-25T07:50:59Z</time>
      </trkpt>
      <trkpt lat="50.15401" lon="3.72337">
        <ele>158.27</ele>
        <time>2014-05-25T07:51:13Z</time>
      </trkpt>
      <trkpt lat="50.15397" lon="3.72342">
        <ele>156.83</ele>
        <time>2014-05-25T07:51:15Z</time>
      </trkpt>
      <trkpt lat="50.15356" lon="3.72402">
        <ele>154.91</ele>
        <time>2014-05-25T07:51:31Z</time>
      </trkpt>
      <trkpt lat="50.15318" lon="3.72462">
        <ele>153.47</ele>
        <time>2014-05-25T07:51:45Z</time>
      </trkpt>
      <trkpt lat="50.15285" lon="3.72513">
        <ele>152.03</ele>
        <time>2014-05-25T07:51:57Z</time>
      </trkpt>
      <trkpt lat="50.15243" lon="3.72575">
        <ele>150.58</ele>
        <time>2014-05-25T07:52:11Z</time>
      </trkpt>
      <trkpt lat="50.15217" lon="3.72603">
        <ele>149.62</ele>
        <time>2014-05-25T07:52:21Z</time>
      </trkpt>
      <trkpt lat="50.15214" lon="3.726">
        <ele>149.62</ele>
        <time>2014-05-25T07:52:22Z</time>
      </trkpt>
      <trkpt lat="50.15211" lon="3.72597">
        <ele>149.14</ele>
        <time>2014-05-25T07:52:23Z</time>
      </trkpt>
      <trkpt lat="50.15209" lon="3.72592">
        <ele>149.14</ele>
        <time>2014-05-25T07:52:24Z</time>
      </trkpt>
      <trkpt lat="50.15208" lon="3.72587">
        <ele>149.14</ele>
        <time>2014-05-25T07:52:25Z</time>
      </trkpt>
      <trkpt lat="50.15206" lon="3.72582">
        <ele>149.14</ele>
        <time>2014-05-25T07:52:26Z</time>
      </trkpt>
      <trkpt lat="50.15204" lon="3.72576">
        <ele>148.66</ele>
        <time>2014-05-25T07:52:27Z</time>
      </trkpt>
      <trkpt lat="50.15202" lon="3.72571">
        <ele>148.66</ele>
        <time>2014-05-25T07:52:28Z</time>
      </trkpt>
      <trkpt lat="50.15158" lon="3.72496">
        <ele>148.18</ele>
        <time>2014-05-25T07:52:46Z</time>
      </trkpt>
      <trkpt lat="50.15114" lon="3.72432">
        <ele>148.18</ele>
        <time>2014-05-25T07:53:04Z</time>
      </trkpt>
      <trkpt lat="50.15069" lon="3.72368">
        <ele>149.14</ele>
        <time>2014-05-25T07:53:21Z</time>
      </trkpt>
      <trkpt lat="50.15027" lon="3.72307">
        <ele>149.62</ele>
        <time>2014-05-25T07:53:36Z</time>
      </trkpt>
      <trkpt lat="50.14977" lon="3.72238">
        <ele>149.62</ele>
        <time>2014-05-25T07:53:53Z</time>
      </trkpt>
      <trkpt lat="50.14932" lon="3.72184">
        <ele>150.1</ele>
        <time>2014-05-25T07:54:08Z</time>
      </trkpt>
      <trkpt lat="50.14881" lon="3.72143">
        <ele>150.1</ele>
        <time>2014-05-25T07:54:23Z</time>
      </trkpt>
      <trkpt lat="50.14819" lon="3.72096">
        <ele>150.58</ele>
        <time>2014-05-25T07:54:41Z</time>
      </trkpt>
      <trkpt lat="50.14763" lon="3.72052">
        <ele>151.06</ele>
        <time>2014-05-25T07:54:57Z</time>
      </trkpt>
      <trkpt lat="50.14721" lon="3.72017">
        <ele>151.06</ele>
        <time>2014-05-25T07:55:09Z</time>
      </trkpt>
      <trkpt lat="50.14673" lon="3.71979">
        <ele>150.58</ele>
        <time>2014-05-25T07:55:21Z</time>
      </trkpt>
      <trkpt lat="50.14665" lon="3.71972">
        <ele>150.58</ele>
        <time>2014-05-25T07:55:23Z</time>
      </trkpt>
      <trkpt lat="50.14631" lon="3.71945">
        <ele>149.62</ele>
        <time>2014-05-25T07:55:31Z</time>
      </trkpt>
      <trkpt lat="50.14555" lon="3.71882">
        <ele>148.66</ele>
        <time>2014-05-25T07:55:48Z</time>
      </trkpt>
      <trkpt lat="50.14499" lon="3.71835">
        <ele>148.66</ele>
        <time>2014-05-25T07:56:01Z</time>
      </trkpt>
      <trkpt lat="50.14488" lon="3.71825">
        <ele>148.66</ele>
        <time>2014-05-25T07:56:04Z</time>
      </trkpt>
      <trkpt lat="50.14484" lon="3.71821">
        <ele>148.66</ele>
        <time>2014-05-25T07:56:05Z</time>
      </trkpt>
      <trkpt lat="50.1444" lon="3.71784">
        <ele>149.62</ele>
        <time>2014-05-25T07:56:17Z</time>
      </trkpt>
      <trkpt lat="50.14382" lon="3.71734">
        <ele>149.62</ele>
        <time>2014-05-25T07:56:32Z</time>
      </trkpt>
      <trkpt lat="50.14307" lon="3.71671">
        <ele>149.62</ele>
        <time>2014-05-25T07:56:52Z</time>
      </trkpt>
      <trkpt lat="50.14291" lon="3.71658">
        <ele>149.62</ele>
        <time>2014-05-25T07:56:56Z</time>
      </trkpt>
      <trkpt lat="50.14228" lon="3.71609">
        <ele>149.62</ele>
        <time>2014-05-25T07:57:14Z</time>
      </trkpt>
      <trkpt lat="50.14177" lon="3.71569">
        <ele>151.54</ele>
        <time>2014-05-25T07:57:30Z</time>
      </trkpt>
      <trkpt lat="50.14139" lon="3.71539">
        <ele>152.51</ele>
        <time>2014-05-25T07:57:44Z</time>
      </trkpt>
      <trkpt lat="50.14085" lon="3.71494">
        <ele>153.47</ele>
        <time>2014-05-25T07:58:02Z</time>
      </trkpt>
      <trkpt lat="50.14048" lon="3.71436">
        <ele>154.91</ele>
        <time>2014-05-25T07:58:17Z</time>
      </trkpt>
      <trkpt lat="50.14024" lon="3.71355">
        <ele>155.39</ele>
        <time>2014-05-25T07:58:33Z</time>
      </trkpt>
      <trkpt lat="50.14012" lon="3.71304">
        <ele>153.95</ele>
        <time>2014-05-25T07:58:42Z</time>
      </trkpt>
      <trkpt lat="50.1398" lon="3.71241">
        <ele>151.06</ele>
        <time>2014-05-25T07:58:54Z</time>
      </trkpt>
      <trkpt lat="50.13926" lon="3.7118">
        <ele>149.62</ele>
        <time>2014-05-25T07:59:09Z</time>
      </trkpt>
      <trkpt lat="50.13879" lon="3.71092">
        <ele>149.62</ele>
        <time>2014-05-25T07:59:28Z</time>
      </trkpt>
      <trkpt lat="50.13848" lon="3.71017">
        <ele>152.99</ele>
        <time>2014-05-25T07:59:45Z</time>
      </trkpt>
      <trkpt lat="50.13822" lon="3.70953">
        <ele>154.91</ele>
        <time>2014-05-25T08:00:02Z</time>
      </trkpt>
      <trkpt lat="50.13801" lon="3.70892">
        <ele>156.83</ele>
        <time>2014-05-25T08:00:17Z</time>
      </trkpt>
      <trkpt lat="50.13795" lon="3.70814">
        <ele>157.31</ele>
        <time>2014-05-25T08:00:33Z</time>
      </trkpt>
      <trkpt lat="50.13797" lon="3.7074">
        <ele>157.31</ele>
        <time>2014-05-25T08:00:48Z</time>
      </trkpt>
      <trkpt lat="50.13764" lon="3.70668">
        <ele>157.31</ele>
        <time>2014-05-25T08:01:03Z</time>
      </trkpt>
      <trkpt lat="50.13759" lon="3.70659">
        <ele>155.87</ele>
        <time>2014-05-25T08:01:05Z</time>
      </trkpt>
      <trkpt lat="50.13734" lon="3.70577">
        <ele>155.39</ele>
        <time>2014-05-25T08:01:20Z</time>
      </trkpt>
      <trkpt lat="50.1373" lon="3.70503">
        <ele>154.43</ele>
        <time>2014-05-25T08:01:32Z</time>
      </trkpt>
      <trkpt lat="50.13719" lon="3.70402">
        <ele>155.39</ele>
        <time>2014-05-25T08:01:48Z</time>
      </trkpt>
      <trkpt lat="50.13717" lon="3.70396">
        <ele>155.39</ele>
        <time>2014-05-25T08:01:49Z</time>
      </trkpt>
      <trkpt lat="50.13685" lon="3.70288">
        <ele>156.83</ele>
        <time>2014-05-25T08:02:09Z</time>
      </trkpt>
      <trkpt lat="50.13659" lon="3.70189">
        <ele>160.2</ele>
        <time>2014-05-25T08:02:28Z</time>
      </trkpt>
      <trkpt lat="50.13631" lon="3.70096">
        <ele>163.56</ele>
        <time>2014-05-25T08:02:47Z</time>
      </trkpt>
      <trkpt lat="50.13598" lon="3.70021">
        <ele>165</ele>
        <time>2014-05-25T08:03:03Z</time>
      </trkpt>
      <trkpt lat="50.13569" lon="3.69924">
        <ele>165.48</ele>
        <time>2014-05-25T08:03:21Z</time>
      </trkpt>
      <trkpt lat="50.1354" lon="3.69803">
        <ele>165</ele>
        <time>2014-05-25T08:03:41Z</time>
      </trkpt>
      <trkpt lat="50.13507" lon="3.69698">
        <ele>165</ele>
        <time>2014-05-25T08:03:59Z</time>
      </trkpt>
      <trkpt lat="50.13466" lon="3.69606">
        <ele>165.96</ele>
        <time>2014-05-25T08:04:18Z</time>
      </trkpt>
      <trkpt lat="50.13454" lon="3.69585">
        <ele>165.96</ele>
        <time>2014-05-25T08:04:22Z</time>
      </trkpt>
      <trkpt lat="50.13451" lon="3.69581">
        <ele>165.96</ele>
        <time>2014-05-25T08:04:23Z</time>
      </trkpt>
      <trkpt lat="50.13449" lon="3.69576">
        <ele>165.96</ele>
        <time>2014-05-25T08:04:24Z</time>
      </trkpt>
      <trkpt lat="50.13438" lon="3.69548">
        <ele>165.96</ele>
        <time>2014-05-25T08:04:29Z</time>
      </trkpt>
      <trkpt lat="50.13405" lon="3.69451">
        <ele>165.96</ele>
        <time>2014-05-25T08:04:47Z</time>
      </trkpt>
      <trkpt lat="50.1338" lon="3.69374">
        <ele>165.96</ele>
        <time>2014-05-25T08:05:02Z</time>
      </trkpt>
      <trkpt lat="50.13378" lon="3.69368">
        <ele>165.96</ele>
        <time>2014-05-25T08:05:03Z</time>
      </trkpt>
      <trkpt lat="50.13344" lon="3.69245">
        <ele>164.52</ele>
        <time>2014-05-25T08:05:22Z</time>
      </trkpt>
      <trkpt lat="50.13332" lon="3.69201">
        <ele>163.56</ele>
        <time>2014-05-25T08:05:28Z</time>
      </trkpt>
      <trkpt lat="50.13293" lon="3.69079">
        <ele>161.64</ele>
        <time>2014-05-25T08:05:44Z</time>
      </trkpt>
      <trkpt lat="50.13289" lon="3.69073">
        <ele>161.64</ele>
        <time>2014-05-25T08:05:45Z</time>
      </trkpt>
      <trkpt lat="50.13227" lon="3.68983">
        <ele>161.64</ele>
        <time>2014-05-25T08:06:03Z</time>
      </trkpt>
      <trkpt lat="50.13162" lon="3.6889">
        <ele>158.75</ele>
        <time>2014-05-25T08:06:21Z</time>
      </trkpt>
      <trkpt lat="50.13102" lon="3.68804">
        <ele>156.35</ele>
        <time>2014-05-25T08:06:36Z</time>
      </trkpt>
      <trkpt lat="50.1305" lon="3.68691">
        <ele>153.47</ele>
        <time>2014-05-25T08:06:51Z</time>
      </trkpt>
      <trkpt lat="50.12999" lon="3.68584">
        <ele>152.51</ele>
        <time>2014-05-25T08:07:06Z</time>
      </trkpt>
      <trkpt lat="50.12947" lon="3.68476">
        <ele>152.51</ele>
        <time>2014-05-25T08:07:25Z</time>
      </trkpt>
      <trkpt lat="50.12914" lon="3.68376">
        <ele>152.51</ele>
        <time>2014-05-25T08:07:42Z</time>
      </trkpt>
      <trkpt lat="50.12913" lon="3.6837">
        <ele>152.51</ele>
        <time>2014-05-25T08:07:43Z</time>
      </trkpt>
      <trkpt lat="50.12913" lon="3.68363">
        <ele>152.51</ele>
        <time>2014-05-25T08:07:44Z</time>
      </trkpt>
      <trkpt lat="50.12915" lon="3.68357">
        <ele>152.51</ele>
        <time>2014-05-25T08:07:45Z</time>
      </trkpt>
      <trkpt lat="50.12918" lon="3.68352">
        <ele>152.51</ele>
        <time>2014-05-25T08:07:46Z</time>
      </trkpt>
      <trkpt lat="50.12921" lon="3.68348">
        <ele>153.47</ele>
        <time>2014-05-25T08:07:47Z</time>
      </trkpt>
      <trkpt lat="50.12924" lon="3.68345">
        <ele>153.47</ele>
        <time>2014-05-25T08:07:48Z</time>
      </trkpt>
      <trkpt lat="50.12928" lon="3.68342">
        <ele>153.47</ele>
        <time>2014-05-25T08:07:49Z</time>
      </trkpt>
      <trkpt lat="50.12931" lon="3.6834">
        <ele>153.47</ele>
        <time>2014-05-25T08:07:50Z</time>
      </trkpt>
      <trkpt lat="50.12935" lon="3.68338">
        <ele>154.43</ele>
        <time>2014-05-25T08:07:51Z</time>
      </trkpt>
      <trkpt lat="50.12969" lon="3.68316">
        <ele>155.39</ele>
        <time>2014-05-25T08:08:03Z</time>
      </trkpt>
      <trkpt lat="50.12969" lon="3.68311">
        <ele>155.87</ele>
        <time>2014-05-25T08:08:04Z</time>
      </trkpt>
      <trkpt lat="50.12968" lon="3.68307">
        <ele>155.87</ele>
        <time>2014-05-25T08:08:05Z</time>
      </trkpt>
      <trkpt lat="50.12965" lon="3.68304">
        <ele>156.35</ele>
        <time>2014-05-25T08:08:06Z</time>
      </trkpt>
      <trkpt lat="50.12963" lon="3.68303">
        <ele>156.35</ele>
        <time>2014-05-25T08:08:07Z</time>
      </trkpt>
      <trkpt lat="50.12959" lon="3.68303">
        <ele>156.35</ele>
        <time>2014-05-25T08:08:08Z</time>
      </trkpt>
      <trkpt lat="50.12956" lon="3.68305">
        <ele>156.35</ele>
        <time>2014-05-25T08:08:09Z</time>
      </trkpt>
      <trkpt lat="50.12953" lon="3.68307">
        <ele>156.35</ele>
        <time>2014-05-25T08:08:10Z</time>
      </trkpt>
      <trkpt lat="50.12909" lon="3.68329">
        <ele>158.27</ele>
        <time>2014-05-25T08:08:23Z</time>
      </trkpt>
      <trkpt lat="50.12862" lon="3.68384">
        <ele>157.31</ele>
        <time>2014-05-25T08:08:40Z</time>
      </trkpt>
      <trkpt lat="50.12854" lon="3.68399">
        <ele>156.35</ele>
        <time>2014-05-25T08:08:43Z</time>
      </trkpt>
      <trkpt lat="50.12841" lon="3.68434">
        <ele>154.91</ele>
        <time>2014-05-25T08:08:49Z</time>
      </trkpt>
      <trkpt lat="50.12826" lon="3.685">
        <ele>151.54</ele>
        <time>2014-05-25T08:08:59Z</time>
      </trkpt>
      <trkpt lat="50.12807" lon="3.68582">
        <ele>148.18</ele>
        <time>2014-05-25T08:09:11Z</time>
      </trkpt>
      <trkpt lat="50.12797" lon="3.68606">
        <ele>148.18</ele>
        <time>2014-05-25T08:09:15Z</time>
      </trkpt>
      <trkpt lat="50.12794" lon="3.6861">
        <ele>148.18</ele>
        <time>2014-05-25T08:09:16Z</time>
      </trkpt>
      <trkpt lat="50.1279" lon="3.68612">
        <ele>147.7</ele>
        <time>2014-05-25T08:09:17Z</time>
      </trkpt>
      <trkpt lat="50.12787" lon="3.6861">
        <ele>147.7</ele>
        <time>2014-05-25T08:09:18Z</time>
      </trkpt>
      <trkpt lat="50.12784" lon="3.68607">
        <ele>147.7</ele>
        <time>2014-05-25T08:09:19Z</time>
      </trkpt>
      <trkpt lat="50.12781" lon="3.68602">
        <ele>147.7</ele>
        <time>2014-05-25T08:09:20Z</time>
      </trkpt>
      <trkpt lat="50.12779" lon="3.68597">
        <ele>147.7</ele>
        <time>2014-05-25T08:09:21Z</time>
      </trkpt>
      <trkpt lat="50.12777" lon="3.68592">
        <ele>147.7</ele>
        <time>2014-05-25T08:09:22Z</time>
      </trkpt>
      <trkpt lat="50.12774" lon="3.68587">
        <ele>147.7</ele>
        <time>2014-05-25T08:09:23Z</time>
      </trkpt>
      <trkpt lat="50.12771" lon="3.68582">
        <ele>147.22</ele>
        <time>2014-05-25T08:09:24Z</time>
      </trkpt>
      <trkpt lat="50.12737" lon="3.68517">
        <ele>146.74</ele>
        <time>2014-05-25T08:09:36Z</time>
      </trkpt>
      <trkpt lat="50.12735" lon="3.6851">
        <ele>146.74</ele>
        <time>2014-05-25T08:09:37Z</time>
      </trkpt>
      <trkpt lat="50.12736" lon="3.68503">
        <ele>146.74</ele>
        <time>2014-05-25T08:09:38Z</time>
      </trkpt>
      <trkpt lat="50.12739" lon="3.68496">
        <ele>146.74</ele>
        <time>2014-05-25T08:09:39Z</time>
      </trkpt>
      <trkpt lat="50.12741" lon="3.68492">
        <ele>146.74</ele>
        <time>2014-05-25T08:09:40Z</time>
      </trkpt>
      <trkpt lat="50.12745" lon="3.68488">
        <ele>146.74</ele>
        <time>2014-05-25T08:09:41Z</time>
      </trkpt>
      <trkpt lat="50.12749" lon="3.68484">
        <ele>146.74</ele>
        <time>2014-05-25T08:09:42Z</time>
      </trkpt>
      <trkpt lat="50.12753" lon="3.68481">
        <ele>146.74</ele>
        <time>2014-05-25T08:09:43Z</time>
      </trkpt>
      <trkpt lat="50.12757" lon="3.68478">
        <ele>146.74</ele>
        <time>2014-05-25T08:09:44Z</time>
      </trkpt>
      <trkpt lat="50.12791" lon="3.68453">
        <ele>147.7</ele>
        <time>2014-05-25T08:09:53Z</time>
      </trkpt>
      <trkpt lat="50.12794" lon="3.68449">
        <ele>148.18</ele>
        <time>2014-05-25T08:09:54Z</time>
      </trkpt>
      <trkpt lat="50.12797" lon="3.68443">
        <ele>148.18</ele>
        <time>2014-05-25T08:09:55Z</time>
      </trkpt>
      <trkpt lat="50.12797" lon="3.68436">
        <ele>148.18</ele>
        <time>2014-05-25T08:09:56Z</time>
      </trkpt>
      <trkpt lat="50.12797" lon="3.6843">
        <ele>148.66</ele>
        <time>2014-05-25T08:09:57Z</time>
      </trkpt>
      <trkpt lat="50.12796" lon="3.68424">
        <ele>148.66</ele>
        <time>2014-05-25T08:09:58Z</time>
      </trkpt>
      <trkpt lat="50.12794" lon="3.68418">
        <ele>148.66</ele>
        <time>2014-05-25T08:09:59Z</time>
      </trkpt>
      <trkpt lat="50.12792" lon="3.68411">
        <ele>148.66</ele>
        <time>2014-05-25T08:10:00Z</time>
      </trkpt>
      <trkpt lat="50.12759" lon="3.68318">
        <ele>147.22</ele>
        <time>2014-05-25T08:10:15Z</time>
      </trkpt>
      <trkpt lat="50.12723" lon="3.68212">
        <ele>146.74</ele>
        <time>2014-05-25T08:10:32Z</time>
      </trkpt>
      <trkpt lat="50.12671" lon="3.68103">
        <ele>145.78</ele>
        <time>2014-05-25T08:10:50Z</time>
      </trkpt>
      <trkpt lat="50.12623" lon="3.67999">
        <ele>145.78</ele>
        <time>2014-05-25T08:11:07Z</time>
      </trkpt>
      <trkpt lat="50.12578" lon="3.67911">
        <ele>145.78</ele>
        <time>2014-05-25T08:11:22Z</time>
      </trkpt>
      <trkpt lat="50.12574" lon="3.67907">
        <ele>145.78</ele>
        <time>2014-05-25T08:11:23Z</time>
      </trkpt>
      <trkpt lat="50.12569" lon="3.67903">
        <ele>145.78</ele>
        <time>2014-05-25T08:11:24Z</time>
      </trkpt>
      <trkpt lat="50.12543" lon="3.67885">
        <ele>145.78</ele>
        <time>2014-05-25T08:11:30Z</time>
      </trkpt>
      <trkpt lat="50.12493" lon="3.67829">
        <ele>145.3</ele>
        <time>2014-05-25T08:11:45Z</time>
      </trkpt>
      <trkpt lat="50.12477" lon="3.67815">
        <ele>145.3</ele>
        <time>2014-05-25T08:11:51Z</time>
      </trkpt>
      <trkpt lat="50.12476" lon="3.67817">
        <ele>145.3</ele>
        <time>2014-05-25T08:11:52Z</time>
      </trkpt>
      <trkpt lat="50.12475" lon="3.67819">
        <ele>145.3</ele>
        <time>2014-05-25T08:11:53Z</time>
      </trkpt>
      <trkpt lat="50.12476" lon="3.67821">
        <ele>144.82</ele>
        <time>2014-05-25T08:11:54Z</time>
      </trkpt>
      <trkpt lat="50.12477" lon="3.67823">
        <ele>144.82</ele>
        <time>2014-05-25T08:11:55Z</time>
      </trkpt>
      <trkpt lat="50.12479" lon="3.67823">
        <ele>144.82</ele>
        <time>2014-05-25T08:12:06Z</time>
      </trkpt>
      <trkpt lat="50.12492" lon="3.67819">
        <ele>144.82</ele>
        <time>2014-05-25T08:12:42Z</time>
      </trkpt>
      <trkpt lat="50.12495" lon="3.67819">
        <ele>144.82</ele>
        <time>2014-05-25T08:13:18Z</time>
      </trkpt>
      <trkpt lat="50.12496" lon="3.67818">
        <ele>144.82</ele>
        <time>2014-05-25T08:13:49Z</time>
      </trkpt>
      <trkpt lat="50.12495" lon="3.67818">
        <ele>144.82</ele>
        <time>2014-05-25T08:14:28Z</time>
      </trkpt>
      <trkpt lat="50.12502" lon="3.67818">
        <ele>144.82</ele>
        <time>2014-05-25T08:15:07Z</time>
      </trkpt>
      <trkpt lat="50.12502" lon="3.67819">
        <ele>144.82</ele>
        <time>2014-05-25T08:15:22Z</time>
      </trkpt>
      <trkpt lat="50.12503" lon="3.67819">
        <ele>144.82</ele>
        <time>2014-05-25T08:15:43Z</time>
      </trkpt>
      <trkpt lat="50.12495" lon="3.6782">
        <ele>144.82</ele>
        <time>2014-05-25T08:16:21Z</time>
      </trkpt>
      <trkpt lat="50.12494" lon="3.6782">
        <ele>144.82</ele>
        <time>2014-05-25T08:16:56Z</time>
      </trkpt>
      <trkpt lat="50.1249" lon="3.67818">
        <ele>144.82</ele>
        <time>2014-05-25T08:17:29Z</time>
      </trkpt>
      <trkpt lat="50.12491" lon="3.67822">
        <ele>145.3</ele>
        <time>2014-05-25T08:18:15Z</time>
      </trkpt>
      <trkpt lat="50.12489" lon="3.67822">
        <ele>145.3</ele>
        <time>2014-05-25T08:19:00Z</time>
      </trkpt>
      <trkpt lat="50.12487" lon="3.67822">
        <ele>145.3</ele>
        <time>2014-05-25T08:19:26Z</time>
      </trkpt>
      <trkpt lat="50.1249" lon="3.67824">
        <ele>145.3</ele>
        <time>2014-05-25T08:20:03Z</time>
      </trkpt>
      <trkpt lat="50.12493" lon="3.67827">
        <ele>146.26</ele>
        <time>2014-05-25T08:20:17Z</time>
      </trkpt>
      <trkpt lat="50.12491" lon="3.67825">
        <ele>146.26</ele>
        <time>2014-05-25T08:20:46Z</time>
      </trkpt>
      <trkpt lat="50.125" lon="3.67822">
        <ele>146.26</ele>
        <time>2014-05-25T08:21:11Z</time>
      </trkpt>
      <trkpt lat="50.12489" lon="3.67827">
        <ele>146.26</ele>
        <time>2014-05-25T08:21:33Z</time>
      </trkpt>
      <trkpt lat="50.12485" lon="3.67831">
        <ele>144.82</ele>
        <time>2014-05-25T08:21:40Z</time>
      </trkpt>
      <trkpt lat="50.12479" lon="3.67829">
        <ele>144.82</ele>
        <time>2014-05-25T08:22:08Z</time>
      </trkpt>
      <trkpt lat="50.12473" lon="3.67828">
        <ele>144.82</ele>
        <time>2014-05-25T08:22:47Z</time>
      </trkpt>
      <trkpt lat="50.12475" lon="3.67826">
        <ele>144.34</ele>
        <time>2014-05-25T08:23:27Z</time>
      </trkpt>
      <trkpt lat="50.12477" lon="3.67828">
        <ele>147.7</ele>
        <time>2014-05-25T08:23:55Z</time>
      </trkpt>
    </trkseg>
  </trk>
</gpx>